<?xml version="1.0" encoding="UTF-8" standalone="no" ?>
<gpx xmlns="http://www.topografix.com/GPX/1/1" xmlns:xsi="http://www.w3.org/2001/XMLSchema-instance" xsi:schemaLocation="http://www.topografix.com/GPX/1/1 http://www.topografix.com/GPX/1/1/gpx.xsd" version="1.1" creator="VisuGPX - https://www.visugpx.com">
  <metadata>
    <name>Les Angles, Jasse et Puig de Calbet</name>
    <desc><![CDATA[Boucle à partir du petit étang d'En Calbet (parking facile). Montée par une large piste puis quelques sentiers jusqu'à un col qui mène au bord de l'Aude. Retour par la très jolie crête du Puig de Calbet.]]></desc>
  </metadata>
  <trk>
    <name><![CDATA[Calbet_lac et pic]]></name>
    <trkseg>
      <trkpt lat="42.54494" lon="2.09058">
        <ele>1718.97</ele>
        <time>2026-08-29T07:31:57Z</time>
      </trkpt>
      <trkpt lat="42.54496" lon="2.09059">
        <ele>1718.01</ele>
        <time>2026-08-29T07:32:23Z</time>
      </trkpt>
      <trkpt lat="42.54496" lon="2.09056">
        <ele>1719.46</ele>
        <time>2026-08-29T07:32:43Z</time>
      </trkpt>
      <trkpt lat="42.54497" lon="2.09058">
        <ele>1717.53</ele>
        <time>2026-08-29T07:33:04Z</time>
      </trkpt>
      <trkpt lat="42.54495" lon="2.09056">
        <ele>1712.73</ele>
        <time>2026-08-29T07:33:32Z</time>
      </trkpt>
      <trkpt lat="42.54498" lon="2.09056">
        <ele>1715.13</ele>
        <time>2026-08-29T07:34:14Z</time>
      </trkpt>
      <trkpt lat="42.54498" lon="2.09058">
        <ele>1715.13</ele>
        <time>2026-08-29T07:34:50Z</time>
      </trkpt>
      <trkpt lat="42.54499" lon="2.0906">
        <ele>1717.53</ele>
        <time>2026-08-29T07:35:20Z</time>
      </trkpt>
      <trkpt lat="42.54499" lon="2.09057">
        <ele>1720.9</ele>
        <time>2026-08-29T07:35:40Z</time>
      </trkpt>
      <trkpt lat="42.54499" lon="2.09059">
        <ele>1719.94</ele>
        <time>2026-08-29T07:36:05Z</time>
      </trkpt>
      <trkpt lat="42.54501" lon="2.09059">
        <ele>1722.34</ele>
        <time>2026-08-29T07:36:29Z</time>
      </trkpt>
      <trkpt lat="42.54499" lon="2.09058">
        <ele>1721.86</ele>
        <time>2026-08-29T07:36:51Z</time>
      </trkpt>
      <trkpt lat="42.54498" lon="2.09057">
        <ele>1721.38</ele>
        <time>2026-08-29T07:37:09Z</time>
      </trkpt>
      <trkpt lat="42.54497" lon="2.09052">
        <ele>1719.94</ele>
        <time>2026-08-29T07:37:18Z</time>
      </trkpt>
      <trkpt lat="42.54499" lon="2.09031">
        <ele>1720.9</ele>
        <time>2026-08-29T07:37:36Z</time>
      </trkpt>
      <trkpt lat="42.54499" lon="2.09016">
        <ele>1722.34</ele>
        <time>2026-08-29T07:37:51Z</time>
      </trkpt>
      <trkpt lat="42.54495" lon="2.09001">
        <ele>1723.3</ele>
        <time>2026-08-29T07:38:05Z</time>
      </trkpt>
      <trkpt lat="42.54488" lon="2.0899">
        <ele>1723.78</ele>
        <time>2026-08-29T07:38:18Z</time>
      </trkpt>
      <trkpt lat="42.54479" lon="2.08975">
        <ele>1724.74</ele>
        <time>2026-08-29T07:38:33Z</time>
      </trkpt>
      <trkpt lat="42.54471" lon="2.0896">
        <ele>1726.18</ele>
        <time>2026-08-29T07:38:49Z</time>
      </trkpt>
      <trkpt lat="42.54467" lon="2.08946">
        <ele>1728.59</ele>
        <time>2026-08-29T07:39:04Z</time>
      </trkpt>
      <trkpt lat="42.54468" lon="2.08944">
        <ele>1729.07</ele>
        <time>2026-08-29T07:39:06Z</time>
      </trkpt>
      <trkpt lat="42.54468" lon="2.08928">
        <ele>1728.11</ele>
        <time>2026-08-29T07:39:19Z</time>
      </trkpt>
      <trkpt lat="42.54469" lon="2.08915">
        <ele>1730.51</ele>
        <time>2026-08-29T07:39:29Z</time>
      </trkpt>
      <trkpt lat="42.54465" lon="2.08898">
        <ele>1730.03</ele>
        <time>2026-08-29T07:39:42Z</time>
      </trkpt>
      <trkpt lat="42.54459" lon="2.08886">
        <ele>1729.07</ele>
        <time>2026-08-29T07:39:57Z</time>
      </trkpt>
      <trkpt lat="42.54454" lon="2.08879">
        <ele>1728.59</ele>
        <time>2026-08-29T07:40:10Z</time>
      </trkpt>
      <trkpt lat="42.5445" lon="2.08873">
        <ele>1729.07</ele>
        <time>2026-08-29T07:40:16Z</time>
      </trkpt>
      <trkpt lat="42.54443" lon="2.08871">
        <ele>1727.15</ele>
        <time>2026-08-29T07:40:32Z</time>
      </trkpt>
      <trkpt lat="42.54434" lon="2.08864">
        <ele>1727.15</ele>
        <time>2026-08-29T07:40:42Z</time>
      </trkpt>
      <trkpt lat="42.54418" lon="2.08859">
        <ele>1728.59</ele>
        <time>2026-08-29T07:41:00Z</time>
      </trkpt>
      <trkpt lat="42.54415" lon="2.08856">
        <ele>1729.07</ele>
        <time>2026-08-29T07:41:07Z</time>
      </trkpt>
      <trkpt lat="42.54415" lon="2.08846">
        <ele>1730.03</ele>
        <time>2026-08-29T07:41:18Z</time>
      </trkpt>
      <trkpt lat="42.54409" lon="2.08839">
        <ele>1730.99</ele>
        <time>2026-08-29T07:41:30Z</time>
      </trkpt>
      <trkpt lat="42.54405" lon="2.08833">
        <ele>1731.95</ele>
        <time>2026-08-29T07:41:42Z</time>
      </trkpt>
      <trkpt lat="42.544" lon="2.08824">
        <ele>1733.88</ele>
        <time>2026-08-29T07:41:55Z</time>
      </trkpt>
      <trkpt lat="42.54391" lon="2.08819">
        <ele>1736.28</ele>
        <time>2026-08-29T07:42:09Z</time>
      </trkpt>
      <trkpt lat="42.54386" lon="2.08813">
        <ele>1739.16</ele>
        <time>2026-08-29T07:42:21Z</time>
      </trkpt>
      <trkpt lat="42.54384" lon="2.08807">
        <ele>1741.57</ele>
        <time>2026-08-29T07:42:34Z</time>
      </trkpt>
      <trkpt lat="42.54381" lon="2.08799">
        <ele>1742.05</ele>
        <time>2026-08-29T07:42:45Z</time>
      </trkpt>
      <trkpt lat="42.54376" lon="2.08791">
        <ele>1741.57</ele>
        <time>2026-08-29T07:42:57Z</time>
      </trkpt>
      <trkpt lat="42.54369" lon="2.0879">
        <ele>1742.53</ele>
        <time>2026-08-29T07:43:09Z</time>
      </trkpt>
      <trkpt lat="42.54357" lon="2.08788">
        <ele>1744.93</ele>
        <time>2026-08-29T07:43:23Z</time>
      </trkpt>
      <trkpt lat="42.54348" lon="2.08783">
        <ele>1744.45</ele>
        <time>2026-08-29T07:43:37Z</time>
      </trkpt>
      <trkpt lat="42.54337" lon="2.08773">
        <ele>1743.01</ele>
        <time>2026-08-29T07:43:52Z</time>
      </trkpt>
      <trkpt lat="42.54328" lon="2.08768">
        <ele>1743.01</ele>
        <time>2026-08-29T07:44:04Z</time>
      </trkpt>
      <trkpt lat="42.54316" lon="2.08758">
        <ele>1744.45</ele>
        <time>2026-08-29T07:44:18Z</time>
      </trkpt>
      <trkpt lat="42.54307" lon="2.08747">
        <ele>1744.45</ele>
        <time>2026-08-29T07:44:32Z</time>
      </trkpt>
      <trkpt lat="42.543" lon="2.08735">
        <ele>1743.49</ele>
        <time>2026-08-29T07:44:46Z</time>
      </trkpt>
      <trkpt lat="42.54294" lon="2.08726">
        <ele>1747.33</ele>
        <time>2026-08-29T07:45:01Z</time>
      </trkpt>
      <trkpt lat="42.5429" lon="2.08718">
        <ele>1753.1</ele>
        <time>2026-08-29T07:45:17Z</time>
      </trkpt>
      <trkpt lat="42.54282" lon="2.08706">
        <ele>1755.99</ele>
        <time>2026-08-29T07:45:31Z</time>
      </trkpt>
      <trkpt lat="42.54273" lon="2.08689">
        <ele>1752.14</ele>
        <time>2026-08-29T07:45:46Z</time>
      </trkpt>
      <trkpt lat="42.54263" lon="2.08677">
        <ele>1752.14</ele>
        <time>2026-08-29T07:46:02Z</time>
      </trkpt>
      <trkpt lat="42.54253" lon="2.08668">
        <ele>1750.7</ele>
        <time>2026-08-29T07:46:16Z</time>
      </trkpt>
      <trkpt lat="42.54248" lon="2.08661">
        <ele>1750.7</ele>
        <time>2026-08-29T07:46:29Z</time>
      </trkpt>
      <trkpt lat="42.54245" lon="2.08649">
        <ele>1750.22</ele>
        <time>2026-08-29T07:46:44Z</time>
      </trkpt>
      <trkpt lat="42.54244" lon="2.08638">
        <ele>1751.18</ele>
        <time>2026-08-29T07:47:00Z</time>
      </trkpt>
      <trkpt lat="42.54249" lon="2.08633">
        <ele>1752.14</ele>
        <time>2026-08-29T07:47:14Z</time>
      </trkpt>
      <trkpt lat="42.54256" lon="2.08628">
        <ele>1755.02</ele>
        <time>2026-08-29T07:47:27Z</time>
      </trkpt>
      <trkpt lat="42.54264" lon="2.08624">
        <ele>1755.02</ele>
        <time>2026-08-29T07:47:41Z</time>
      </trkpt>
      <trkpt lat="42.54266" lon="2.08609">
        <ele>1754.06</ele>
        <time>2026-08-29T07:47:56Z</time>
      </trkpt>
      <trkpt lat="42.54264" lon="2.08594">
        <ele>1754.06</ele>
        <time>2026-08-29T07:48:13Z</time>
      </trkpt>
      <trkpt lat="42.5426" lon="2.08581">
        <ele>1755.5</ele>
        <time>2026-08-29T07:48:28Z</time>
      </trkpt>
      <trkpt lat="42.54259" lon="2.08566">
        <ele>1756.95</ele>
        <time>2026-08-29T07:48:44Z</time>
      </trkpt>
      <trkpt lat="42.54257" lon="2.08561">
        <ele>1757.43</ele>
        <time>2026-08-29T07:48:57Z</time>
      </trkpt>
      <trkpt lat="42.54253" lon="2.08556">
        <ele>1760.79</ele>
        <time>2026-08-29T07:49:11Z</time>
      </trkpt>
      <trkpt lat="42.54254" lon="2.08554">
        <ele>1758.87</ele>
        <time>2026-08-29T07:49:36Z</time>
      </trkpt>
      <trkpt lat="42.54257" lon="2.08542">
        <ele>1763.2</ele>
        <time>2026-08-29T07:49:51Z</time>
      </trkpt>
      <trkpt lat="42.5426" lon="2.08533">
        <ele>1765.12</ele>
        <time>2026-08-29T07:50:02Z</time>
      </trkpt>
      <trkpt lat="42.54265" lon="2.08519">
        <ele>1768.48</ele>
        <time>2026-08-29T07:50:17Z</time>
      </trkpt>
      <trkpt lat="42.54268" lon="2.08508">
        <ele>1768.96</ele>
        <time>2026-08-29T07:50:31Z</time>
      </trkpt>
      <trkpt lat="42.54269" lon="2.08491">
        <ele>1772.81</ele>
        <time>2026-08-29T07:50:46Z</time>
      </trkpt>
      <trkpt lat="42.54271" lon="2.08477">
        <ele>1777.13</ele>
        <time>2026-08-29T07:51:00Z</time>
      </trkpt>
      <trkpt lat="42.54274" lon="2.08467">
        <ele>1775.69</ele>
        <time>2026-08-29T07:51:14Z</time>
      </trkpt>
      <trkpt lat="42.54278" lon="2.08457">
        <ele>1775.69</ele>
        <time>2026-08-29T07:51:28Z</time>
      </trkpt>
      <trkpt lat="42.54282" lon="2.08448">
        <ele>1777.61</ele>
        <time>2026-08-29T07:51:41Z</time>
      </trkpt>
      <trkpt lat="42.54285" lon="2.08438">
        <ele>1779.06</ele>
        <time>2026-08-29T07:51:54Z</time>
      </trkpt>
      <trkpt lat="42.54288" lon="2.08424">
        <ele>1780.98</ele>
        <time>2026-08-29T07:52:10Z</time>
      </trkpt>
      <trkpt lat="42.5429" lon="2.08415">
        <ele>1784.82</ele>
        <time>2026-08-29T07:52:24Z</time>
      </trkpt>
      <trkpt lat="42.54289" lon="2.08397">
        <ele>1782.42</ele>
        <time>2026-08-29T07:52:38Z</time>
      </trkpt>
      <trkpt lat="42.54292" lon="2.08383">
        <ele>1781.46</ele>
        <time>2026-08-29T07:52:52Z</time>
      </trkpt>
      <trkpt lat="42.54293" lon="2.08371">
        <ele>1782.9</ele>
        <time>2026-08-29T07:53:04Z</time>
      </trkpt>
      <trkpt lat="42.54292" lon="2.08359">
        <ele>1782.42</ele>
        <time>2026-08-29T07:53:20Z</time>
      </trkpt>
      <trkpt lat="42.5429" lon="2.08351">
        <ele>1782.42</ele>
        <time>2026-08-29T07:53:34Z</time>
      </trkpt>
      <trkpt lat="42.54284" lon="2.08342">
        <ele>1783.86</ele>
        <time>2026-08-29T07:53:46Z</time>
      </trkpt>
      <trkpt lat="42.54278" lon="2.08335">
        <ele>1783.38</ele>
        <time>2026-08-29T07:53:57Z</time>
      </trkpt>
      <trkpt lat="42.54272" lon="2.08325">
        <ele>1784.34</ele>
        <time>2026-08-29T07:54:11Z</time>
      </trkpt>
      <trkpt lat="42.54265" lon="2.08311">
        <ele>1785.79</ele>
        <time>2026-08-29T07:54:26Z</time>
      </trkpt>
      <trkpt lat="42.54264" lon="2.08298">
        <ele>1785.31</ele>
        <time>2026-08-29T07:54:40Z</time>
      </trkpt>
      <trkpt lat="42.54261" lon="2.08293">
        <ele>1785.79</ele>
        <time>2026-08-29T07:54:59Z</time>
      </trkpt>
      <trkpt lat="42.54263" lon="2.08283">
        <ele>1786.75</ele>
        <time>2026-08-29T07:55:12Z</time>
      </trkpt>
      <trkpt lat="42.54265" lon="2.08271">
        <ele>1787.71</ele>
        <time>2026-08-29T07:55:25Z</time>
      </trkpt>
      <trkpt lat="42.54266" lon="2.08253">
        <ele>1788.19</ele>
        <time>2026-08-29T07:55:40Z</time>
      </trkpt>
      <trkpt lat="42.54265" lon="2.08244">
        <ele>1789.63</ele>
        <time>2026-08-29T07:55:52Z</time>
      </trkpt>
      <trkpt lat="42.54264" lon="2.08234">
        <ele>1793.48</ele>
        <time>2026-08-29T07:56:04Z</time>
      </trkpt>
      <trkpt lat="42.54264" lon="2.08226">
        <ele>1796.36</ele>
        <time>2026-08-29T07:56:17Z</time>
      </trkpt>
      <trkpt lat="42.54263" lon="2.08213">
        <ele>1797.8</ele>
        <time>2026-08-29T07:56:31Z</time>
      </trkpt>
      <trkpt lat="42.54264" lon="2.08197">
        <ele>1796.36</ele>
        <time>2026-08-29T07:56:43Z</time>
      </trkpt>
      <trkpt lat="42.54268" lon="2.08181">
        <ele>1797.32</ele>
        <time>2026-08-29T07:56:57Z</time>
      </trkpt>
      <trkpt lat="42.54277" lon="2.08179">
        <ele>1803.09</ele>
        <time>2026-08-29T07:57:13Z</time>
      </trkpt>
      <trkpt lat="42.54285" lon="2.08178">
        <ele>1804.05</ele>
        <time>2026-08-29T07:57:26Z</time>
      </trkpt>
      <trkpt lat="42.54296" lon="2.08171">
        <ele>1802.13</ele>
        <time>2026-08-29T07:57:43Z</time>
      </trkpt>
      <trkpt lat="42.54304" lon="2.08176">
        <ele>1808.86</ele>
        <time>2026-08-29T07:57:58Z</time>
      </trkpt>
      <trkpt lat="42.54312" lon="2.08176">
        <ele>1810.78</ele>
        <time>2026-08-29T07:58:11Z</time>
      </trkpt>
      <trkpt lat="42.54321" lon="2.0818">
        <ele>1808.38</ele>
        <time>2026-08-29T07:58:26Z</time>
      </trkpt>
      <trkpt lat="42.54331" lon="2.08181">
        <ele>1804.05</ele>
        <time>2026-08-29T07:58:42Z</time>
      </trkpt>
      <trkpt lat="42.54342" lon="2.08184">
        <ele>1800.21</ele>
        <time>2026-08-29T07:58:56Z</time>
      </trkpt>
      <trkpt lat="42.54353" lon="2.08185">
        <ele>1799.24</ele>
        <time>2026-08-29T07:59:09Z</time>
      </trkpt>
      <trkpt lat="42.54366" lon="2.08184">
        <ele>1798.76</ele>
        <time>2026-08-29T07:59:25Z</time>
      </trkpt>
      <trkpt lat="42.54373" lon="2.08173">
        <ele>1799.24</ele>
        <time>2026-08-29T07:59:39Z</time>
      </trkpt>
      <trkpt lat="42.54374" lon="2.08159">
        <ele>1801.65</ele>
        <time>2026-08-29T07:59:54Z</time>
      </trkpt>
      <trkpt lat="42.54373" lon="2.0815">
        <ele>1802.13</ele>
        <time>2026-08-29T08:00:08Z</time>
      </trkpt>
      <trkpt lat="42.54366" lon="2.08145">
        <ele>1803.09</ele>
        <time>2026-08-29T08:00:20Z</time>
      </trkpt>
      <trkpt lat="42.54358" lon="2.08138">
        <ele>1802.61</ele>
        <time>2026-08-29T08:00:34Z</time>
      </trkpt>
      <trkpt lat="42.54354" lon="2.08126">
        <ele>1803.57</ele>
        <time>2026-08-29T08:00:48Z</time>
      </trkpt>
      <trkpt lat="42.54351" lon="2.08111">
        <ele>1801.65</ele>
        <time>2026-08-29T08:01:01Z</time>
      </trkpt>
      <trkpt lat="42.54346" lon="2.08094">
        <ele>1805.49</ele>
        <time>2026-08-29T08:01:17Z</time>
      </trkpt>
      <trkpt lat="42.54344" lon="2.08082">
        <ele>1804.53</ele>
        <time>2026-08-29T08:01:32Z</time>
      </trkpt>
      <trkpt lat="42.54341" lon="2.08069">
        <ele>1805.49</ele>
        <time>2026-08-29T08:01:47Z</time>
      </trkpt>
      <trkpt lat="42.54338" lon="2.08058">
        <ele>1810.78</ele>
        <time>2026-08-29T08:02:02Z</time>
      </trkpt>
      <trkpt lat="42.54338" lon="2.08035">
        <ele>1811.74</ele>
        <time>2026-08-29T08:02:18Z</time>
      </trkpt>
      <trkpt lat="42.54338" lon="2.08017">
        <ele>1812.22</ele>
        <time>2026-08-29T08:02:35Z</time>
      </trkpt>
      <trkpt lat="42.54338" lon="2.08003">
        <ele>1811.74</ele>
        <time>2026-08-29T08:02:50Z</time>
      </trkpt>
      <trkpt lat="42.54334" lon="2.07994">
        <ele>1812.22</ele>
        <time>2026-08-29T08:03:04Z</time>
      </trkpt>
      <trkpt lat="42.54328" lon="2.07981">
        <ele>1812.7</ele>
        <time>2026-08-29T08:03:19Z</time>
      </trkpt>
      <trkpt lat="42.54322" lon="2.07976">
        <ele>1813.66</ele>
        <time>2026-08-29T08:03:30Z</time>
      </trkpt>
      <trkpt lat="42.54317" lon="2.07964">
        <ele>1817.51</ele>
        <time>2026-08-29T08:03:45Z</time>
      </trkpt>
      <trkpt lat="42.5432" lon="2.07951">
        <ele>1816.07</ele>
        <time>2026-08-29T08:03:59Z</time>
      </trkpt>
      <trkpt lat="42.54325" lon="2.0794">
        <ele>1816.55</ele>
        <time>2026-08-29T08:04:15Z</time>
      </trkpt>
      <trkpt lat="42.5433" lon="2.07925">
        <ele>1822.8</ele>
        <time>2026-08-29T08:04:31Z</time>
      </trkpt>
      <trkpt lat="42.54335" lon="2.07908">
        <ele>1827.12</ele>
        <time>2026-08-29T08:04:46Z</time>
      </trkpt>
      <trkpt lat="42.54337" lon="2.07891">
        <ele>1826.64</ele>
        <time>2026-08-29T08:05:02Z</time>
      </trkpt>
      <trkpt lat="42.5434" lon="2.07876">
        <ele>1824.72</ele>
        <time>2026-08-29T08:05:15Z</time>
      </trkpt>
      <trkpt lat="42.54344" lon="2.07861">
        <ele>1824.24</ele>
        <time>2026-08-29T08:05:29Z</time>
      </trkpt>
      <trkpt lat="42.54343" lon="2.07844">
        <ele>1825.68</ele>
        <time>2026-08-29T08:05:43Z</time>
      </trkpt>
      <trkpt lat="42.54345" lon="2.07829">
        <ele>1821.35</ele>
        <time>2026-08-29T08:05:58Z</time>
      </trkpt>
      <trkpt lat="42.54343" lon="2.07814">
        <ele>1819.43</ele>
        <time>2026-08-29T08:06:14Z</time>
      </trkpt>
      <trkpt lat="42.54345" lon="2.07794">
        <ele>1817.51</ele>
        <time>2026-08-29T08:06:29Z</time>
      </trkpt>
      <trkpt lat="42.54346" lon="2.0778">
        <ele>1816.07</ele>
        <time>2026-08-29T08:06:44Z</time>
      </trkpt>
      <trkpt lat="42.54341" lon="2.07763">
        <ele>1817.03</ele>
        <time>2026-08-29T08:06:58Z</time>
      </trkpt>
      <trkpt lat="42.54336" lon="2.07746">
        <ele>1816.55</ele>
        <time>2026-08-29T08:07:14Z</time>
      </trkpt>
      <trkpt lat="42.54332" lon="2.07726">
        <ele>1816.55</ele>
        <time>2026-08-29T08:07:31Z</time>
      </trkpt>
      <trkpt lat="42.54328" lon="2.07712">
        <ele>1817.51</ele>
        <time>2026-08-29T08:07:46Z</time>
      </trkpt>
      <trkpt lat="42.54325" lon="2.07698">
        <ele>1819.43</ele>
        <time>2026-08-29T08:08:02Z</time>
      </trkpt>
      <trkpt lat="42.54328" lon="2.07687">
        <ele>1823.76</ele>
        <time>2026-08-29T08:08:17Z</time>
      </trkpt>
      <trkpt lat="42.54333" lon="2.07673">
        <ele>1824.72</ele>
        <time>2026-08-29T08:08:32Z</time>
      </trkpt>
      <trkpt lat="42.54336" lon="2.07651">
        <ele>1823.76</ele>
        <time>2026-08-29T08:08:47Z</time>
      </trkpt>
      <trkpt lat="42.5434" lon="2.07633">
        <ele>1823.76</ele>
        <time>2026-08-29T08:09:04Z</time>
      </trkpt>
      <trkpt lat="42.5434" lon="2.07625">
        <ele>1826.64</ele>
        <time>2026-08-29T08:09:19Z</time>
      </trkpt>
      <trkpt lat="42.54341" lon="2.07606">
        <ele>1823.28</ele>
        <time>2026-08-29T08:09:42Z</time>
      </trkpt>
      <trkpt lat="42.54342" lon="2.07592">
        <ele>1823.76</ele>
        <time>2026-08-29T08:09:56Z</time>
      </trkpt>
      <trkpt lat="42.54341" lon="2.07576">
        <ele>1824.24</ele>
        <time>2026-08-29T08:10:13Z</time>
      </trkpt>
      <trkpt lat="42.54341" lon="2.07557">
        <ele>1826.64</ele>
        <time>2026-08-29T08:10:30Z</time>
      </trkpt>
      <trkpt lat="42.5434" lon="2.07538">
        <ele>1827.12</ele>
        <time>2026-08-29T08:10:47Z</time>
      </trkpt>
      <trkpt lat="42.54339" lon="2.07522">
        <ele>1827.6</ele>
        <time>2026-08-29T08:11:01Z</time>
      </trkpt>
      <trkpt lat="42.5434" lon="2.07512">
        <ele>1827.6</ele>
        <time>2026-08-29T08:11:15Z</time>
      </trkpt>
      <trkpt lat="42.54341" lon="2.07501">
        <ele>1828.56</ele>
        <time>2026-08-29T08:11:29Z</time>
      </trkpt>
      <trkpt lat="42.54345" lon="2.07491">
        <ele>1828.56</ele>
        <time>2026-08-29T08:11:43Z</time>
      </trkpt>
      <trkpt lat="42.54349" lon="2.07483">
        <ele>1832.41</ele>
        <time>2026-08-29T08:11:58Z</time>
      </trkpt>
      <trkpt lat="42.54352" lon="2.0747">
        <ele>1834.33</ele>
        <time>2026-08-29T08:12:12Z</time>
      </trkpt>
      <trkpt lat="42.54353" lon="2.07455">
        <ele>1835.29</ele>
        <time>2026-08-29T08:12:25Z</time>
      </trkpt>
      <trkpt lat="42.54353" lon="2.07439">
        <ele>1835.77</ele>
        <time>2026-08-29T08:12:40Z</time>
      </trkpt>
      <trkpt lat="42.54353" lon="2.07424">
        <ele>1835.77</ele>
        <time>2026-08-29T08:12:54Z</time>
      </trkpt>
      <trkpt lat="42.54359" lon="2.07416">
        <ele>1836.26</ele>
        <time>2026-08-29T08:13:08Z</time>
      </trkpt>
      <trkpt lat="42.5436" lon="2.07416">
        <ele>1836.26</ele>
        <time>2026-08-29T08:13:24Z</time>
      </trkpt>
      <trkpt lat="42.54362" lon="2.07413">
        <ele>1834.81</ele>
        <time>2026-08-29T08:13:46Z</time>
      </trkpt>
      <trkpt lat="42.54366" lon="2.07395">
        <ele>1832.41</ele>
        <time>2026-08-29T08:14:02Z</time>
      </trkpt>
      <trkpt lat="42.54373" lon="2.07381">
        <ele>1832.89</ele>
        <time>2026-08-29T08:14:17Z</time>
      </trkpt>
      <trkpt lat="42.54381" lon="2.0737">
        <ele>1832.41</ele>
        <time>2026-08-29T08:14:31Z</time>
      </trkpt>
      <trkpt lat="42.54386" lon="2.07367">
        <ele>1831.45</ele>
        <time>2026-08-29T08:14:46Z</time>
      </trkpt>
      <trkpt lat="42.54389" lon="2.07357">
        <ele>1832.89</ele>
        <time>2026-08-29T08:14:58Z</time>
      </trkpt>
      <trkpt lat="42.54391" lon="2.07352">
        <ele>1833.85</ele>
        <time>2026-08-29T08:15:04Z</time>
      </trkpt>
      <trkpt lat="42.54399" lon="2.07338">
        <ele>1830.97</ele>
        <time>2026-08-29T08:15:19Z</time>
      </trkpt>
      <trkpt lat="42.54407" lon="2.07321">
        <ele>1829.53</ele>
        <time>2026-08-29T08:15:35Z</time>
      </trkpt>
      <trkpt lat="42.5441" lon="2.07313">
        <ele>1829.05</ele>
        <time>2026-08-29T08:15:48Z</time>
      </trkpt>
      <trkpt lat="42.54414" lon="2.07296">
        <ele>1830.49</ele>
        <time>2026-08-29T08:16:05Z</time>
      </trkpt>
      <trkpt lat="42.54418" lon="2.07283">
        <ele>1830.97</ele>
        <time>2026-08-29T08:16:18Z</time>
      </trkpt>
      <trkpt lat="42.54424" lon="2.0727">
        <ele>1831.93</ele>
        <time>2026-08-29T08:16:32Z</time>
      </trkpt>
      <trkpt lat="42.54428" lon="2.07254">
        <ele>1831.45</ele>
        <time>2026-08-29T08:16:46Z</time>
      </trkpt>
      <trkpt lat="42.54428" lon="2.07245">
        <ele>1830.97</ele>
        <time>2026-08-29T08:16:54Z</time>
      </trkpt>
      <trkpt lat="42.54429" lon="2.07242">
        <ele>1830.49</ele>
        <time>2026-08-29T08:16:56Z</time>
      </trkpt>
      <trkpt lat="42.54429" lon="2.07233">
        <ele>1830.01</ele>
        <time>2026-08-29T08:17:11Z</time>
      </trkpt>
      <trkpt lat="42.54431" lon="2.07225">
        <ele>1829.05</ele>
        <time>2026-08-29T08:17:31Z</time>
      </trkpt>
      <trkpt lat="42.54431" lon="2.07221">
        <ele>1829.05</ele>
        <time>2026-08-29T08:17:34Z</time>
      </trkpt>
      <trkpt lat="42.54433" lon="2.0721">
        <ele>1830.01</ele>
        <time>2026-08-29T08:17:44Z</time>
      </trkpt>
      <trkpt lat="42.54432" lon="2.07193">
        <ele>1829.05</ele>
        <time>2026-08-29T08:17:58Z</time>
      </trkpt>
      <trkpt lat="42.54433" lon="2.07175">
        <ele>1830.97</ele>
        <time>2026-08-29T08:18:15Z</time>
      </trkpt>
      <trkpt lat="42.54433" lon="2.07163">
        <ele>1831.93</ele>
        <time>2026-08-29T08:18:29Z</time>
      </trkpt>
      <trkpt lat="42.54433" lon="2.07155">
        <ele>1833.37</ele>
        <time>2026-08-29T08:18:42Z</time>
      </trkpt>
      <trkpt lat="42.54431" lon="2.0714">
        <ele>1833.85</ele>
        <time>2026-08-29T08:18:56Z</time>
      </trkpt>
      <trkpt lat="42.5443" lon="2.07125">
        <ele>1833.37</ele>
        <time>2026-08-29T08:19:10Z</time>
      </trkpt>
      <trkpt lat="42.54436" lon="2.07112">
        <ele>1834.81</ele>
        <time>2026-08-29T08:19:25Z</time>
      </trkpt>
      <trkpt lat="42.54443" lon="2.07101">
        <ele>1837.7</ele>
        <time>2026-08-29T08:19:40Z</time>
      </trkpt>
      <trkpt lat="42.54448" lon="2.07094">
        <ele>1839.62</ele>
        <time>2026-08-29T08:19:54Z</time>
      </trkpt>
      <trkpt lat="42.5445" lon="2.07083">
        <ele>1842.5</ele>
        <time>2026-08-29T08:20:09Z</time>
      </trkpt>
      <trkpt lat="42.5445" lon="2.07082">
        <ele>1843.47</ele>
        <time>2026-08-29T08:20:26Z</time>
      </trkpt>
      <trkpt lat="42.54453" lon="2.0708">
        <ele>1847.31</ele>
        <time>2026-08-29T08:20:50Z</time>
      </trkpt>
      <trkpt lat="42.54453" lon="2.07067">
        <ele>1847.79</ele>
        <time>2026-08-29T08:21:04Z</time>
      </trkpt>
      <trkpt lat="42.54453" lon="2.07056">
        <ele>1849.71</ele>
        <time>2026-08-29T08:21:18Z</time>
      </trkpt>
      <trkpt lat="42.54455" lon="2.07043">
        <ele>1849.71</ele>
        <time>2026-08-29T08:21:34Z</time>
      </trkpt>
      <trkpt lat="42.54457" lon="2.07032">
        <ele>1849.71</ele>
        <time>2026-08-29T08:21:48Z</time>
      </trkpt>
      <trkpt lat="42.54459" lon="2.07022">
        <ele>1850.68</ele>
        <time>2026-08-29T08:22:02Z</time>
      </trkpt>
      <trkpt lat="42.54462" lon="2.07016">
        <ele>1853.56</ele>
        <time>2026-08-29T08:22:16Z</time>
      </trkpt>
      <trkpt lat="42.54465" lon="2.0701">
        <ele>1854.52</ele>
        <time>2026-08-29T08:22:33Z</time>
      </trkpt>
      <trkpt lat="42.54466" lon="2.07005">
        <ele>1855</ele>
        <time>2026-08-29T08:22:56Z</time>
      </trkpt>
      <trkpt lat="42.54465" lon="2.07009">
        <ele>1851.64</ele>
        <time>2026-08-29T08:23:19Z</time>
      </trkpt>
      <trkpt lat="42.54466" lon="2.07009">
        <ele>1848.27</ele>
        <time>2026-08-29T08:23:53Z</time>
      </trkpt>
      <trkpt lat="42.54468" lon="2.07008">
        <ele>1849.71</ele>
        <time>2026-08-29T08:24:29Z</time>
      </trkpt>
      <trkpt lat="42.54465" lon="2.07002">
        <ele>1850.68</ele>
        <time>2026-08-29T08:24:43Z</time>
      </trkpt>
      <trkpt lat="42.54467" lon="2.06993">
        <ele>1852.6</ele>
        <time>2026-08-29T08:24:59Z</time>
      </trkpt>
      <trkpt lat="42.54469" lon="2.06987">
        <ele>1856.92</ele>
        <time>2026-08-29T08:25:15Z</time>
      </trkpt>
      <trkpt lat="42.54473" lon="2.06978">
        <ele>1860.29</ele>
        <time>2026-08-29T08:25:31Z</time>
      </trkpt>
      <trkpt lat="42.54479" lon="2.0697">
        <ele>1860.77</ele>
        <time>2026-08-29T08:25:45Z</time>
      </trkpt>
      <trkpt lat="42.54483" lon="2.06961">
        <ele>1861.73</ele>
        <time>2026-08-29T08:26:02Z</time>
      </trkpt>
      <trkpt lat="42.5449" lon="2.06954">
        <ele>1863.17</ele>
        <time>2026-08-29T08:26:18Z</time>
      </trkpt>
      <trkpt lat="42.54493" lon="2.06946">
        <ele>1862.69</ele>
        <time>2026-08-29T08:26:32Z</time>
      </trkpt>
      <trkpt lat="42.54498" lon="2.06941">
        <ele>1866.54</ele>
        <time>2026-08-29T08:26:46Z</time>
      </trkpt>
      <trkpt lat="42.54504" lon="2.0694">
        <ele>1871.34</ele>
        <time>2026-08-29T08:27:02Z</time>
      </trkpt>
      <trkpt lat="42.54512" lon="2.06936">
        <ele>1872.3</ele>
        <time>2026-08-29T08:27:19Z</time>
      </trkpt>
      <trkpt lat="42.54518" lon="2.06932">
        <ele>1874.23</ele>
        <time>2026-08-29T08:27:30Z</time>
      </trkpt>
      <trkpt lat="42.5452" lon="2.0692">
        <ele>1871.34</ele>
        <time>2026-08-29T08:27:45Z</time>
      </trkpt>
      <trkpt lat="42.54521" lon="2.06913">
        <ele>1872.3</ele>
        <time>2026-08-29T08:27:58Z</time>
      </trkpt>
      <trkpt lat="42.54523" lon="2.06904">
        <ele>1872.79</ele>
        <time>2026-08-29T08:28:11Z</time>
      </trkpt>
      <trkpt lat="42.54528" lon="2.06895">
        <ele>1872.79</ele>
        <time>2026-08-29T08:28:26Z</time>
      </trkpt>
      <trkpt lat="42.54533" lon="2.06884">
        <ele>1876.15</ele>
        <time>2026-08-29T08:28:39Z</time>
      </trkpt>
      <trkpt lat="42.54536" lon="2.06875">
        <ele>1875.67</ele>
        <time>2026-08-29T08:28:51Z</time>
      </trkpt>
      <trkpt lat="42.54538" lon="2.06865">
        <ele>1877.59</ele>
        <time>2026-08-29T08:29:04Z</time>
      </trkpt>
      <trkpt lat="42.54541" lon="2.06855">
        <ele>1877.11</ele>
        <time>2026-08-29T08:29:17Z</time>
      </trkpt>
      <trkpt lat="42.54548" lon="2.06847">
        <ele>1876.63</ele>
        <time>2026-08-29T08:29:33Z</time>
      </trkpt>
      <trkpt lat="42.54556" lon="2.06839">
        <ele>1879.03</ele>
        <time>2026-08-29T08:29:48Z</time>
      </trkpt>
      <trkpt lat="42.54563" lon="2.06831">
        <ele>1880.96</ele>
        <time>2026-08-29T08:30:01Z</time>
      </trkpt>
      <trkpt lat="42.54566" lon="2.06826">
        <ele>1875.67</ele>
        <time>2026-08-29T08:30:27Z</time>
      </trkpt>
      <trkpt lat="42.5457" lon="2.06816">
        <ele>1876.63</ele>
        <time>2026-08-29T08:30:40Z</time>
      </trkpt>
      <trkpt lat="42.54573" lon="2.06807">
        <ele>1877.11</ele>
        <time>2026-08-29T08:30:54Z</time>
      </trkpt>
      <trkpt lat="42.54578" lon="2.06797">
        <ele>1876.15</ele>
        <time>2026-08-29T08:31:08Z</time>
      </trkpt>
      <trkpt lat="42.54582" lon="2.06789">
        <ele>1878.55</ele>
        <time>2026-08-29T08:31:23Z</time>
      </trkpt>
      <trkpt lat="42.54585" lon="2.06779">
        <ele>1880.96</ele>
        <time>2026-08-29T08:31:37Z</time>
      </trkpt>
      <trkpt lat="42.54592" lon="2.06771">
        <ele>1881.92</ele>
        <time>2026-08-29T08:31:50Z</time>
      </trkpt>
      <trkpt lat="42.54595" lon="2.06767">
        <ele>1880.48</ele>
        <time>2026-08-29T08:32:06Z</time>
      </trkpt>
      <trkpt lat="42.54599" lon="2.06764">
        <ele>1880.48</ele>
        <time>2026-08-29T08:32:35Z</time>
      </trkpt>
      <trkpt lat="42.54609" lon="2.06754">
        <ele>1882.88</ele>
        <time>2026-08-29T08:32:49Z</time>
      </trkpt>
      <trkpt lat="42.54622" lon="2.06742">
        <ele>1883.84</ele>
        <time>2026-08-29T08:33:06Z</time>
      </trkpt>
      <trkpt lat="42.54629" lon="2.0673">
        <ele>1886.24</ele>
        <time>2026-08-29T08:33:21Z</time>
      </trkpt>
      <trkpt lat="42.54633" lon="2.06717">
        <ele>1884.8</ele>
        <time>2026-08-29T08:33:34Z</time>
      </trkpt>
      <trkpt lat="42.54641" lon="2.06708">
        <ele>1885.28</ele>
        <time>2026-08-29T08:33:47Z</time>
      </trkpt>
      <trkpt lat="42.54648" lon="2.06697">
        <ele>1887.21</ele>
        <time>2026-08-29T08:34:02Z</time>
      </trkpt>
      <trkpt lat="42.54658" lon="2.06687">
        <ele>1888.17</ele>
        <time>2026-08-29T08:34:17Z</time>
      </trkpt>
      <trkpt lat="42.54665" lon="2.06683">
        <ele>1888.17</ele>
        <time>2026-08-29T08:34:31Z</time>
      </trkpt>
      <trkpt lat="42.54674" lon="2.06677">
        <ele>1887.21</ele>
        <time>2026-08-29T08:34:48Z</time>
      </trkpt>
      <trkpt lat="42.54682" lon="2.06671">
        <ele>1889.13</ele>
        <time>2026-08-29T08:35:03Z</time>
      </trkpt>
      <trkpt lat="42.54689" lon="2.06669">
        <ele>1890.09</ele>
        <time>2026-08-29T08:35:16Z</time>
      </trkpt>
      <trkpt lat="42.54698" lon="2.06661">
        <ele>1891.05</ele>
        <time>2026-08-29T08:35:30Z</time>
      </trkpt>
      <trkpt lat="42.54705" lon="2.06652">
        <ele>1890.09</ele>
        <time>2026-08-29T08:35:46Z</time>
      </trkpt>
      <trkpt lat="42.54711" lon="2.06641">
        <ele>1888.17</ele>
        <time>2026-08-29T08:36:00Z</time>
      </trkpt>
      <trkpt lat="42.54721" lon="2.06633">
        <ele>1882.4</ele>
        <time>2026-08-29T08:36:14Z</time>
      </trkpt>
      <trkpt lat="42.54729" lon="2.06627">
        <ele>1881.44</ele>
        <time>2026-08-29T08:36:28Z</time>
      </trkpt>
      <trkpt lat="42.54739" lon="2.06624">
        <ele>1882.4</ele>
        <time>2026-08-29T08:36:41Z</time>
      </trkpt>
      <trkpt lat="42.54748" lon="2.06618">
        <ele>1882.88</ele>
        <time>2026-08-29T08:36:55Z</time>
      </trkpt>
      <trkpt lat="42.54757" lon="2.06615">
        <ele>1881.92</ele>
        <time>2026-08-29T08:37:09Z</time>
      </trkpt>
      <trkpt lat="42.54764" lon="2.06611">
        <ele>1884.32</ele>
        <time>2026-08-29T08:37:23Z</time>
      </trkpt>
      <trkpt lat="42.54775" lon="2.06609">
        <ele>1883.84</ele>
        <time>2026-08-29T08:37:40Z</time>
      </trkpt>
      <trkpt lat="42.54778" lon="2.06611">
        <ele>1882.4</ele>
        <time>2026-08-29T08:37:55Z</time>
      </trkpt>
      <trkpt lat="42.54778" lon="2.06615">
        <ele>1880</ele>
        <time>2026-08-29T08:38:10Z</time>
      </trkpt>
      <trkpt lat="42.54788" lon="2.06626">
        <ele>1879.51</ele>
        <time>2026-08-29T08:38:28Z</time>
      </trkpt>
      <trkpt lat="42.54805" lon="2.06628">
        <ele>1873.27</ele>
        <time>2026-08-29T08:38:43Z</time>
      </trkpt>
      <trkpt lat="42.54815" lon="2.06621">
        <ele>1872.3</ele>
        <time>2026-08-29T08:38:57Z</time>
      </trkpt>
      <trkpt lat="42.54826" lon="2.06608">
        <ele>1869.42</ele>
        <time>2026-08-29T08:39:14Z</time>
      </trkpt>
      <trkpt lat="42.54834" lon="2.066">
        <ele>1869.42</ele>
        <time>2026-08-29T08:39:27Z</time>
      </trkpt>
      <trkpt lat="42.54843" lon="2.06593">
        <ele>1870.38</ele>
        <time>2026-08-29T08:39:43Z</time>
      </trkpt>
      <trkpt lat="42.54851" lon="2.06588">
        <ele>1870.38</ele>
        <time>2026-08-29T08:39:57Z</time>
      </trkpt>
      <trkpt lat="42.54858" lon="2.06587">
        <ele>1872.3</ele>
        <time>2026-08-29T08:40:09Z</time>
      </trkpt>
      <trkpt lat="42.5487" lon="2.06578">
        <ele>1874.71</ele>
        <time>2026-08-29T08:40:24Z</time>
      </trkpt>
      <trkpt lat="42.5488" lon="2.06574">
        <ele>1876.15</ele>
        <time>2026-08-29T08:40:37Z</time>
      </trkpt>
      <trkpt lat="42.5489" lon="2.06568">
        <ele>1878.55</ele>
        <time>2026-08-29T08:40:51Z</time>
      </trkpt>
      <trkpt lat="42.54898" lon="2.06552">
        <ele>1874.71</ele>
        <time>2026-08-29T08:41:06Z</time>
      </trkpt>
      <trkpt lat="42.54906" lon="2.06538">
        <ele>1870.86</ele>
        <time>2026-08-29T08:41:21Z</time>
      </trkpt>
      <trkpt lat="42.54915" lon="2.06532">
        <ele>1869.9</ele>
        <time>2026-08-29T08:41:37Z</time>
      </trkpt>
      <trkpt lat="42.54927" lon="2.06522">
        <ele>1871.34</ele>
        <time>2026-08-29T08:41:53Z</time>
      </trkpt>
      <trkpt lat="42.54938" lon="2.06514">
        <ele>1868.94</ele>
        <time>2026-08-29T08:42:08Z</time>
      </trkpt>
      <trkpt lat="42.54949" lon="2.06502">
        <ele>1865.09</ele>
        <time>2026-08-29T08:42:23Z</time>
      </trkpt>
      <trkpt lat="42.54963" lon="2.06488">
        <ele>1862.21</ele>
        <time>2026-08-29T08:42:41Z</time>
      </trkpt>
      <trkpt lat="42.54965" lon="2.06487">
        <ele>1861.73</ele>
        <time>2026-08-29T08:42:43Z</time>
      </trkpt>
      <trkpt lat="42.54977" lon="2.06474">
        <ele>1860.77</ele>
        <time>2026-08-29T08:42:59Z</time>
      </trkpt>
      <trkpt lat="42.54984" lon="2.06463">
        <ele>1858.85</ele>
        <time>2026-08-29T08:43:12Z</time>
      </trkpt>
      <trkpt lat="42.54989" lon="2.06453">
        <ele>1860.29</ele>
        <time>2026-08-29T08:43:24Z</time>
      </trkpt>
      <trkpt lat="42.54998" lon="2.0644">
        <ele>1865.58</ele>
        <time>2026-08-29T08:43:40Z</time>
      </trkpt>
      <trkpt lat="42.55004" lon="2.06429">
        <ele>1868.94</ele>
        <time>2026-08-29T08:43:54Z</time>
      </trkpt>
      <trkpt lat="42.55016" lon="2.06427">
        <ele>1867.02</ele>
        <time>2026-08-29T08:44:10Z</time>
      </trkpt>
      <trkpt lat="42.55028" lon="2.06423">
        <ele>1869.9</ele>
        <time>2026-08-29T08:44:25Z</time>
      </trkpt>
      <trkpt lat="42.55038" lon="2.06411">
        <ele>1872.3</ele>
        <time>2026-08-29T08:44:41Z</time>
      </trkpt>
      <trkpt lat="42.55047" lon="2.06401">
        <ele>1871.34</ele>
        <time>2026-08-29T08:44:54Z</time>
      </trkpt>
      <trkpt lat="42.55048" lon="2.06395">
        <ele>1868.46</ele>
        <time>2026-08-29T08:45:05Z</time>
      </trkpt>
      <trkpt lat="42.55053" lon="2.0639">
        <ele>1864.13</ele>
        <time>2026-08-29T08:45:17Z</time>
      </trkpt>
      <trkpt lat="42.55054" lon="2.06384">
        <ele>1864.61</ele>
        <time>2026-08-29T08:45:29Z</time>
      </trkpt>
      <trkpt lat="42.55058" lon="2.06379">
        <ele>1865.09</ele>
        <time>2026-08-29T08:45:40Z</time>
      </trkpt>
      <trkpt lat="42.55059" lon="2.06364">
        <ele>1858.85</ele>
        <time>2026-08-29T08:45:56Z</time>
      </trkpt>
      <trkpt lat="42.5506" lon="2.0636">
        <ele>1857.89</ele>
        <time>2026-08-29T08:46:09Z</time>
      </trkpt>
      <trkpt lat="42.55057" lon="2.06356">
        <ele>1858.37</ele>
        <time>2026-08-29T08:46:21Z</time>
      </trkpt>
      <trkpt lat="42.55055" lon="2.06348">
        <ele>1858.85</ele>
        <time>2026-08-29T08:46:34Z</time>
      </trkpt>
      <trkpt lat="42.55049" lon="2.06338">
        <ele>1862.21</ele>
        <time>2026-08-29T08:46:49Z</time>
      </trkpt>
      <trkpt lat="42.55044" lon="2.06334">
        <ele>1867.98</ele>
        <time>2026-08-29T08:47:02Z</time>
      </trkpt>
      <trkpt lat="42.55044" lon="2.06328">
        <ele>1868.94</ele>
        <time>2026-08-29T08:47:23Z</time>
      </trkpt>
      <trkpt lat="42.5504" lon="2.06326">
        <ele>1868.94</ele>
        <time>2026-08-29T08:47:37Z</time>
      </trkpt>
      <trkpt lat="42.5504" lon="2.06319">
        <ele>1867.5</ele>
        <time>2026-08-29T08:47:52Z</time>
      </trkpt>
      <trkpt lat="42.55039" lon="2.06311">
        <ele>1865.58</ele>
        <time>2026-08-29T08:48:07Z</time>
      </trkpt>
      <trkpt lat="42.55039" lon="2.06308">
        <ele>1866.54</ele>
        <time>2026-08-29T08:48:19Z</time>
      </trkpt>
      <trkpt lat="42.55041" lon="2.06303">
        <ele>1866.06</ele>
        <time>2026-08-29T08:48:34Z</time>
      </trkpt>
      <trkpt lat="42.55044" lon="2.06299">
        <ele>1861.25</ele>
        <time>2026-08-29T08:48:48Z</time>
      </trkpt>
      <trkpt lat="42.5505" lon="2.06289">
        <ele>1859.81</ele>
        <time>2026-08-29T08:49:02Z</time>
      </trkpt>
      <trkpt lat="42.55051" lon="2.06276">
        <ele>1856.92</ele>
        <time>2026-08-29T08:49:17Z</time>
      </trkpt>
      <trkpt lat="42.55047" lon="2.06266">
        <ele>1856.44</ele>
        <time>2026-08-29T08:49:29Z</time>
      </trkpt>
      <trkpt lat="42.55045" lon="2.06264">
        <ele>1857.89</ele>
        <time>2026-08-29T08:49:46Z</time>
      </trkpt>
      <trkpt lat="42.55043" lon="2.06261">
        <ele>1858.85</ele>
        <time>2026-08-29T08:50:09Z</time>
      </trkpt>
      <trkpt lat="42.55038" lon="2.06263">
        <ele>1858.37</ele>
        <time>2026-08-29T08:50:27Z</time>
      </trkpt>
      <trkpt lat="42.55041" lon="2.06268">
        <ele>1857.89</ele>
        <time>2026-08-29T08:50:47Z</time>
      </trkpt>
      <trkpt lat="42.55049" lon="2.06268">
        <ele>1855.96</ele>
        <time>2026-08-29T08:51:05Z</time>
      </trkpt>
      <trkpt lat="42.55056" lon="2.06268">
        <ele>1855.96</ele>
        <time>2026-08-29T08:51:17Z</time>
      </trkpt>
      <trkpt lat="42.55063" lon="2.06268">
        <ele>1855</ele>
        <time>2026-08-29T08:51:31Z</time>
      </trkpt>
      <trkpt lat="42.55067" lon="2.06269">
        <ele>1855.96</ele>
        <time>2026-08-29T08:51:49Z</time>
      </trkpt>
      <trkpt lat="42.5507" lon="2.06273">
        <ele>1857.89</ele>
        <time>2026-08-29T08:52:02Z</time>
      </trkpt>
      <trkpt lat="42.55075" lon="2.06275">
        <ele>1855</ele>
        <time>2026-08-29T08:52:15Z</time>
      </trkpt>
      <trkpt lat="42.55075" lon="2.06277">
        <ele>1854.04</ele>
        <time>2026-08-29T08:52:31Z</time>
      </trkpt>
      <trkpt lat="42.55075" lon="2.06282">
        <ele>1855.96</ele>
        <time>2026-08-29T08:52:43Z</time>
      </trkpt>
      <trkpt lat="42.55074" lon="2.06286">
        <ele>1855.96</ele>
        <time>2026-08-29T08:52:55Z</time>
      </trkpt>
      <trkpt lat="42.55078" lon="2.06294">
        <ele>1855</ele>
        <time>2026-08-29T08:53:10Z</time>
      </trkpt>
      <trkpt lat="42.55082" lon="2.06302">
        <ele>1855</ele>
        <time>2026-08-29T08:53:22Z</time>
      </trkpt>
      <trkpt lat="42.55085" lon="2.06306">
        <ele>1852.6</ele>
        <time>2026-08-29T08:53:34Z</time>
      </trkpt>
      <trkpt lat="42.55089" lon="2.06313">
        <ele>1849.23</ele>
        <time>2026-08-29T08:53:57Z</time>
      </trkpt>
      <trkpt lat="42.55091" lon="2.06312">
        <ele>1849.23</ele>
        <time>2026-08-29T08:54:16Z</time>
      </trkpt>
      <trkpt lat="42.5509" lon="2.06312">
        <ele>1848.27</ele>
        <time>2026-08-29T08:54:47Z</time>
      </trkpt>
      <trkpt lat="42.55091" lon="2.06311">
        <ele>1847.31</ele>
        <time>2026-08-29T08:55:11Z</time>
      </trkpt>
      <trkpt lat="42.5509" lon="2.0631">
        <ele>1849.23</ele>
        <time>2026-08-29T08:55:24Z</time>
      </trkpt>
      <trkpt lat="42.55091" lon="2.06307">
        <ele>1848.27</ele>
        <time>2026-08-29T08:55:45Z</time>
      </trkpt>
      <trkpt lat="42.55088" lon="2.06309">
        <ele>1849.23</ele>
        <time>2026-08-29T08:56:00Z</time>
      </trkpt>
      <trkpt lat="42.55087" lon="2.06311">
        <ele>1848.27</ele>
        <time>2026-08-29T08:56:23Z</time>
      </trkpt>
      <trkpt lat="42.55088" lon="2.0631">
        <ele>1849.71</ele>
        <time>2026-08-29T08:56:53Z</time>
      </trkpt>
      <trkpt lat="42.55088" lon="2.06311">
        <ele>1851.64</ele>
        <time>2026-08-29T08:57:11Z</time>
      </trkpt>
      <trkpt lat="42.55088" lon="2.06315">
        <ele>1853.56</ele>
        <time>2026-08-29T08:57:22Z</time>
      </trkpt>
      <trkpt lat="42.55088" lon="2.06322">
        <ele>1852.12</ele>
        <time>2026-08-29T08:57:39Z</time>
      </trkpt>
      <trkpt lat="42.55088" lon="2.06323">
        <ele>1849.71</ele>
        <time>2026-08-29T08:58:12Z</time>
      </trkpt>
      <trkpt lat="42.55091" lon="2.06318">
        <ele>1849.71</ele>
        <time>2026-08-29T08:58:27Z</time>
      </trkpt>
      <trkpt lat="42.5509" lon="2.06312">
        <ele>1849.71</ele>
        <time>2026-08-29T08:58:39Z</time>
      </trkpt>
      <trkpt lat="42.55091" lon="2.06309">
        <ele>1849.71</ele>
        <time>2026-08-29T08:58:58Z</time>
      </trkpt>
      <trkpt lat="42.5509" lon="2.06307">
        <ele>1851.64</ele>
        <time>2026-08-29T08:59:10Z</time>
      </trkpt>
      <trkpt lat="42.5508" lon="2.06312">
        <ele>1850.68</ele>
        <time>2026-08-29T08:59:27Z</time>
      </trkpt>
      <trkpt lat="42.55074" lon="2.06317">
        <ele>1849.71</ele>
        <time>2026-08-29T08:59:41Z</time>
      </trkpt>
      <trkpt lat="42.55075" lon="2.06313">
        <ele>1848.75</ele>
        <time>2026-08-29T08:59:52Z</time>
      </trkpt>
      <trkpt lat="42.55073" lon="2.06309">
        <ele>1849.23</ele>
        <time>2026-08-29T09:00:04Z</time>
      </trkpt>
      <trkpt lat="42.55065" lon="2.06309">
        <ele>1847.79</ele>
        <time>2026-08-29T09:00:19Z</time>
      </trkpt>
      <trkpt lat="42.55063" lon="2.06306">
        <ele>1848.27</ele>
        <time>2026-08-29T09:00:31Z</time>
      </trkpt>
      <trkpt lat="42.5506" lon="2.06304">
        <ele>1848.75</ele>
        <time>2026-08-29T09:00:44Z</time>
      </trkpt>
      <trkpt lat="42.55054" lon="2.06306">
        <ele>1850.19</ele>
        <time>2026-08-29T09:00:58Z</time>
      </trkpt>
      <trkpt lat="42.55049" lon="2.06304">
        <ele>1853.08</ele>
        <time>2026-08-29T09:01:10Z</time>
      </trkpt>
      <trkpt lat="42.55044" lon="2.06306">
        <ele>1854.52</ele>
        <time>2026-08-29T09:01:23Z</time>
      </trkpt>
      <trkpt lat="42.55038" lon="2.06311">
        <ele>1855.96</ele>
        <time>2026-08-29T09:01:36Z</time>
      </trkpt>
      <trkpt lat="42.55036" lon="2.06316">
        <ele>1861.73</ele>
        <time>2026-08-29T09:01:51Z</time>
      </trkpt>
      <trkpt lat="42.55034" lon="2.06323">
        <ele>1866.54</ele>
        <time>2026-08-29T09:02:03Z</time>
      </trkpt>
      <trkpt lat="42.55034" lon="2.06332">
        <ele>1872.79</ele>
        <time>2026-08-29T09:02:21Z</time>
      </trkpt>
      <trkpt lat="42.55035" lon="2.06338">
        <ele>1876.63</ele>
        <time>2026-08-29T09:02:35Z</time>
      </trkpt>
      <trkpt lat="42.55033" lon="2.06336">
        <ele>1876.15</ele>
        <time>2026-08-29T09:02:50Z</time>
      </trkpt>
      <trkpt lat="42.5503" lon="2.06343">
        <ele>1875.19</ele>
        <time>2026-08-29T09:03:05Z</time>
      </trkpt>
      <trkpt lat="42.55028" lon="2.06352">
        <ele>1876.63</ele>
        <time>2026-08-29T09:03:21Z</time>
      </trkpt>
      <trkpt lat="42.55025" lon="2.06359">
        <ele>1874.71</ele>
        <time>2026-08-29T09:03:35Z</time>
      </trkpt>
      <trkpt lat="42.55019" lon="2.06366">
        <ele>1875.19</ele>
        <time>2026-08-29T09:03:49Z</time>
      </trkpt>
      <trkpt lat="42.55014" lon="2.06372">
        <ele>1878.07</ele>
        <time>2026-08-29T09:04:02Z</time>
      </trkpt>
      <trkpt lat="42.55014" lon="2.06379">
        <ele>1878.07</ele>
        <time>2026-08-29T09:04:14Z</time>
      </trkpt>
      <trkpt lat="42.55011" lon="2.06382">
        <ele>1878.55</ele>
        <time>2026-08-29T09:04:29Z</time>
      </trkpt>
      <trkpt lat="42.55006" lon="2.06384">
        <ele>1880</ele>
        <time>2026-08-29T09:04:46Z</time>
      </trkpt>
      <trkpt lat="42.55002" lon="2.06386">
        <ele>1880.48</ele>
        <time>2026-08-29T09:04:59Z</time>
      </trkpt>
      <trkpt lat="42.54998" lon="2.06393">
        <ele>1881.44</ele>
        <time>2026-08-29T09:05:15Z</time>
      </trkpt>
      <trkpt lat="42.54995" lon="2.064">
        <ele>1878.55</ele>
        <time>2026-08-29T09:05:30Z</time>
      </trkpt>
      <trkpt lat="42.54993" lon="2.0641">
        <ele>1874.71</ele>
        <time>2026-08-29T09:05:47Z</time>
      </trkpt>
      <trkpt lat="42.54988" lon="2.06418">
        <ele>1873.27</ele>
        <time>2026-08-29T09:06:03Z</time>
      </trkpt>
      <trkpt lat="42.54988" lon="2.06421">
        <ele>1877.11</ele>
        <time>2026-08-29T09:06:16Z</time>
      </trkpt>
      <trkpt lat="42.54984" lon="2.06434">
        <ele>1880</ele>
        <time>2026-08-29T09:06:32Z</time>
      </trkpt>
      <trkpt lat="42.54978" lon="2.06445">
        <ele>1888.17</ele>
        <time>2026-08-29T09:06:47Z</time>
      </trkpt>
      <trkpt lat="42.54968" lon="2.06456">
        <ele>1880</ele>
        <time>2026-08-29T09:07:00Z</time>
      </trkpt>
      <trkpt lat="42.54964" lon="2.06459">
        <ele>1878.07</ele>
        <time>2026-08-29T09:07:06Z</time>
      </trkpt>
      <trkpt lat="42.54958" lon="2.06469">
        <ele>1877.59</ele>
        <time>2026-08-29T09:07:20Z</time>
      </trkpt>
      <trkpt lat="42.54953" lon="2.06475">
        <ele>1876.15</ele>
        <time>2026-08-29T09:07:32Z</time>
      </trkpt>
      <trkpt lat="42.54945" lon="2.06481">
        <ele>1879.51</ele>
        <time>2026-08-29T09:07:46Z</time>
      </trkpt>
      <trkpt lat="42.54936" lon="2.06489">
        <ele>1883.36</ele>
        <time>2026-08-29T09:08:03Z</time>
      </trkpt>
      <trkpt lat="42.54928" lon="2.06498">
        <ele>1885.76</ele>
        <time>2026-08-29T09:08:18Z</time>
      </trkpt>
      <trkpt lat="42.54921" lon="2.06503">
        <ele>1888.65</ele>
        <time>2026-08-29T09:08:32Z</time>
      </trkpt>
      <trkpt lat="42.54914" lon="2.06511">
        <ele>1887.69</ele>
        <time>2026-08-29T09:08:46Z</time>
      </trkpt>
      <trkpt lat="42.54906" lon="2.06518">
        <ele>1888.17</ele>
        <time>2026-08-29T09:09:02Z</time>
      </trkpt>
      <trkpt lat="42.54896" lon="2.06525">
        <ele>1886.72</ele>
        <time>2026-08-29T09:09:18Z</time>
      </trkpt>
      <trkpt lat="42.54889" lon="2.06532">
        <ele>1892.49</ele>
        <time>2026-08-29T09:09:33Z</time>
      </trkpt>
      <trkpt lat="42.54881" lon="2.06539">
        <ele>1897.3</ele>
        <time>2026-08-29T09:09:49Z</time>
      </trkpt>
      <trkpt lat="42.54874" lon="2.06546">
        <ele>1897.78</ele>
        <time>2026-08-29T09:10:04Z</time>
      </trkpt>
      <trkpt lat="42.54869" lon="2.0656">
        <ele>1891.05</ele>
        <time>2026-08-29T09:10:17Z</time>
      </trkpt>
      <trkpt lat="42.54858" lon="2.06564">
        <ele>1886.24</ele>
        <time>2026-08-29T09:10:33Z</time>
      </trkpt>
      <trkpt lat="42.54852" lon="2.06566">
        <ele>1888.65</ele>
        <time>2026-08-29T09:10:47Z</time>
      </trkpt>
      <trkpt lat="42.54845" lon="2.06571">
        <ele>1887.69</ele>
        <time>2026-08-29T09:11:00Z</time>
      </trkpt>
      <trkpt lat="42.54833" lon="2.06581">
        <ele>1885.76</ele>
        <time>2026-08-29T09:11:18Z</time>
      </trkpt>
      <trkpt lat="42.54825" lon="2.06588">
        <ele>1886.72</ele>
        <time>2026-08-29T09:11:30Z</time>
      </trkpt>
      <trkpt lat="42.54816" lon="2.06597">
        <ele>1888.65</ele>
        <time>2026-08-29T09:11:45Z</time>
      </trkpt>
      <trkpt lat="42.54808" lon="2.06605">
        <ele>1891.53</ele>
        <time>2026-08-29T09:12:01Z</time>
      </trkpt>
      <trkpt lat="42.54802" lon="2.06619">
        <ele>1885.76</ele>
        <time>2026-08-29T09:12:16Z</time>
      </trkpt>
      <trkpt lat="42.54796" lon="2.06621">
        <ele>1877.11</ele>
        <time>2026-08-29T09:12:30Z</time>
      </trkpt>
      <trkpt lat="42.54795" lon="2.06623">
        <ele>1874.71</ele>
        <time>2026-08-29T09:12:50Z</time>
      </trkpt>
      <trkpt lat="42.54791" lon="2.06612">
        <ele>1873.27</ele>
        <time>2026-08-29T09:13:04Z</time>
      </trkpt>
      <trkpt lat="42.54789" lon="2.06601">
        <ele>1874.71</ele>
        <time>2026-08-29T09:13:17Z</time>
      </trkpt>
      <trkpt lat="42.54786" lon="2.06591">
        <ele>1875.19</ele>
        <time>2026-08-29T09:13:32Z</time>
      </trkpt>
      <trkpt lat="42.54781" lon="2.06591">
        <ele>1878.55</ele>
        <time>2026-08-29T09:13:47Z</time>
      </trkpt>
      <trkpt lat="42.54768" lon="2.06592">
        <ele>1877.59</ele>
        <time>2026-08-29T09:14:02Z</time>
      </trkpt>
      <trkpt lat="42.54761" lon="2.06595">
        <ele>1878.55</ele>
        <time>2026-08-29T09:14:15Z</time>
      </trkpt>
      <trkpt lat="42.54758" lon="2.06598">
        <ele>1881.44</ele>
        <time>2026-08-29T09:14:32Z</time>
      </trkpt>
      <trkpt lat="42.54753" lon="2.06602">
        <ele>1884.32</ele>
        <time>2026-08-29T09:14:45Z</time>
      </trkpt>
      <trkpt lat="42.54744" lon="2.06605">
        <ele>1887.69</ele>
        <time>2026-08-29T09:14:59Z</time>
      </trkpt>
      <trkpt lat="42.54735" lon="2.06611">
        <ele>1885.28</ele>
        <time>2026-08-29T09:15:13Z</time>
      </trkpt>
      <trkpt lat="42.5473" lon="2.06616">
        <ele>1882.88</ele>
        <time>2026-08-29T09:15:33Z</time>
      </trkpt>
      <trkpt lat="42.5472" lon="2.06623">
        <ele>1882.88</ele>
        <time>2026-08-29T09:15:48Z</time>
      </trkpt>
      <trkpt lat="42.54711" lon="2.06635">
        <ele>1880</ele>
        <time>2026-08-29T09:16:04Z</time>
      </trkpt>
      <trkpt lat="42.54704" lon="2.06644">
        <ele>1881.92</ele>
        <time>2026-08-29T09:16:18Z</time>
      </trkpt>
      <trkpt lat="42.54702" lon="2.06647">
        <ele>1885.28</ele>
        <time>2026-08-29T09:16:36Z</time>
      </trkpt>
      <trkpt lat="42.547" lon="2.0665">
        <ele>1884.32</ele>
        <time>2026-08-29T09:16:59Z</time>
      </trkpt>
      <trkpt lat="42.54696" lon="2.06657">
        <ele>1882.4</ele>
        <time>2026-08-29T09:17:13Z</time>
      </trkpt>
      <trkpt lat="42.54696" lon="2.06662">
        <ele>1880.96</ele>
        <time>2026-08-29T09:17:24Z</time>
      </trkpt>
      <trkpt lat="42.54699" lon="2.06672">
        <ele>1881.44</ele>
        <time>2026-08-29T09:17:41Z</time>
      </trkpt>
      <trkpt lat="42.54698" lon="2.06682">
        <ele>1884.32</ele>
        <time>2026-08-29T09:17:55Z</time>
      </trkpt>
      <trkpt lat="42.54699" lon="2.06689">
        <ele>1884.32</ele>
        <time>2026-08-29T09:18:06Z</time>
      </trkpt>
      <trkpt lat="42.547" lon="2.06694">
        <ele>1883.84</ele>
        <time>2026-08-29T09:18:21Z</time>
      </trkpt>
      <trkpt lat="42.54703" lon="2.06692">
        <ele>1881.92</ele>
        <time>2026-08-29T09:18:51Z</time>
      </trkpt>
      <trkpt lat="42.54706" lon="2.06697">
        <ele>1884.8</ele>
        <time>2026-08-29T09:19:05Z</time>
      </trkpt>
      <trkpt lat="42.54707" lon="2.06706">
        <ele>1883.84</ele>
        <time>2026-08-29T09:19:23Z</time>
      </trkpt>
      <trkpt lat="42.54707" lon="2.06716">
        <ele>1887.21</ele>
        <time>2026-08-29T09:19:36Z</time>
      </trkpt>
      <trkpt lat="42.54708" lon="2.06728">
        <ele>1889.61</ele>
        <time>2026-08-29T09:19:48Z</time>
      </trkpt>
      <trkpt lat="42.54705" lon="2.06742">
        <ele>1893.93</ele>
        <time>2026-08-29T09:20:05Z</time>
      </trkpt>
      <trkpt lat="42.54706" lon="2.06757">
        <ele>1893.45</ele>
        <time>2026-08-29T09:20:18Z</time>
      </trkpt>
      <trkpt lat="42.54704" lon="2.06772">
        <ele>1891.53</ele>
        <time>2026-08-29T09:20:32Z</time>
      </trkpt>
      <trkpt lat="42.54703" lon="2.06784">
        <ele>1893.45</ele>
        <time>2026-08-29T09:20:46Z</time>
      </trkpt>
      <trkpt lat="42.54702" lon="2.06788">
        <ele>1895.38</ele>
        <time>2026-08-29T09:21:02Z</time>
      </trkpt>
      <trkpt lat="42.54701" lon="2.06802">
        <ele>1895.86</ele>
        <time>2026-08-29T09:21:16Z</time>
      </trkpt>
      <trkpt lat="42.54703" lon="2.06818">
        <ele>1891.53</ele>
        <time>2026-08-29T09:21:31Z</time>
      </trkpt>
      <trkpt lat="42.54704" lon="2.06831">
        <ele>1892.01</ele>
        <time>2026-08-29T09:21:46Z</time>
      </trkpt>
      <trkpt lat="42.54705" lon="2.06846">
        <ele>1892.49</ele>
        <time>2026-08-29T09:22:00Z</time>
      </trkpt>
      <trkpt lat="42.54708" lon="2.06857">
        <ele>1894.9</ele>
        <time>2026-08-29T09:22:13Z</time>
      </trkpt>
      <trkpt lat="42.54708" lon="2.06865">
        <ele>1899.7</ele>
        <time>2026-08-29T09:22:25Z</time>
      </trkpt>
      <trkpt lat="42.54709" lon="2.0687">
        <ele>1902.11</ele>
        <time>2026-08-29T09:22:46Z</time>
      </trkpt>
      <trkpt lat="42.5471" lon="2.06885">
        <ele>1901.63</ele>
        <time>2026-08-29T09:23:01Z</time>
      </trkpt>
      <trkpt lat="42.54712" lon="2.06898">
        <ele>1904.51</ele>
        <time>2026-08-29T09:23:15Z</time>
      </trkpt>
      <trkpt lat="42.5471" lon="2.06909">
        <ele>1907.39</ele>
        <time>2026-08-29T09:23:29Z</time>
      </trkpt>
      <trkpt lat="42.5471" lon="2.06917">
        <ele>1908.83</ele>
        <time>2026-08-29T09:23:46Z</time>
      </trkpt>
      <trkpt lat="42.54712" lon="2.06924">
        <ele>1905.47</ele>
        <time>2026-08-29T09:23:59Z</time>
      </trkpt>
      <trkpt lat="42.54716" lon="2.06929">
        <ele>1904.51</ele>
        <time>2026-08-29T09:24:12Z</time>
      </trkpt>
      <trkpt lat="42.54719" lon="2.06938">
        <ele>1901.63</ele>
        <time>2026-08-29T09:24:27Z</time>
      </trkpt>
      <trkpt lat="42.54718" lon="2.06951">
        <ele>1900.66</ele>
        <time>2026-08-29T09:24:43Z</time>
      </trkpt>
      <trkpt lat="42.54714" lon="2.0696">
        <ele>1899.7</ele>
        <time>2026-08-29T09:24:55Z</time>
      </trkpt>
      <trkpt lat="42.54716" lon="2.06971">
        <ele>1904.03</ele>
        <time>2026-08-29T09:25:09Z</time>
      </trkpt>
      <trkpt lat="42.54722" lon="2.06981">
        <ele>1902.59</ele>
        <time>2026-08-29T09:25:23Z</time>
      </trkpt>
      <trkpt lat="42.54724" lon="2.06986">
        <ele>1900.66</ele>
        <time>2026-08-29T09:25:39Z</time>
      </trkpt>
      <trkpt lat="42.54726" lon="2.0699">
        <ele>1894.9</ele>
        <time>2026-08-29T09:26:11Z</time>
      </trkpt>
      <trkpt lat="42.54722" lon="2.07005">
        <ele>1896.82</ele>
        <time>2026-08-29T09:26:25Z</time>
      </trkpt>
      <trkpt lat="42.54719" lon="2.07016">
        <ele>1897.3</ele>
        <time>2026-08-29T09:26:35Z</time>
      </trkpt>
      <trkpt lat="42.54715" lon="2.07031">
        <ele>1896.82</ele>
        <time>2026-08-29T09:26:51Z</time>
      </trkpt>
      <trkpt lat="42.54711" lon="2.07044">
        <ele>1899.22</ele>
        <time>2026-08-29T09:27:04Z</time>
      </trkpt>
      <trkpt lat="42.54706" lon="2.07058">
        <ele>1900.18</ele>
        <time>2026-08-29T09:27:19Z</time>
      </trkpt>
      <trkpt lat="42.54704" lon="2.07078">
        <ele>1900.66</ele>
        <time>2026-08-29T09:27:35Z</time>
      </trkpt>
      <trkpt lat="42.547" lon="2.07092">
        <ele>1901.63</ele>
        <time>2026-08-29T09:27:51Z</time>
      </trkpt>
      <trkpt lat="42.54696" lon="2.07094">
        <ele>1902.59</ele>
        <time>2026-08-29T09:28:03Z</time>
      </trkpt>
      <trkpt lat="42.54695" lon="2.07108">
        <ele>1899.22</ele>
        <time>2026-08-29T09:28:16Z</time>
      </trkpt>
      <trkpt lat="42.54688" lon="2.0712">
        <ele>1902.11</ele>
        <time>2026-08-29T09:28:31Z</time>
      </trkpt>
      <trkpt lat="42.54686" lon="2.07133">
        <ele>1902.11</ele>
        <time>2026-08-29T09:28:43Z</time>
      </trkpt>
      <trkpt lat="42.5468" lon="2.07148">
        <ele>1902.59</ele>
        <time>2026-08-29T09:28:57Z</time>
      </trkpt>
      <trkpt lat="42.54677" lon="2.07155">
        <ele>1900.18</ele>
        <time>2026-08-29T09:29:09Z</time>
      </trkpt>
      <trkpt lat="42.54673" lon="2.07169">
        <ele>1900.18</ele>
        <time>2026-08-29T09:29:23Z</time>
      </trkpt>
      <trkpt lat="42.54672" lon="2.07179">
        <ele>1902.11</ele>
        <time>2026-08-29T09:29:34Z</time>
      </trkpt>
      <trkpt lat="42.54671" lon="2.0719">
        <ele>1892.49</ele>
        <time>2026-08-29T09:29:48Z</time>
      </trkpt>
      <trkpt lat="42.54673" lon="2.07206">
        <ele>1886.72</ele>
        <time>2026-08-29T09:30:03Z</time>
      </trkpt>
      <trkpt lat="42.54671" lon="2.07223">
        <ele>1886.72</ele>
        <time>2026-08-29T09:30:18Z</time>
      </trkpt>
      <trkpt lat="42.54672" lon="2.07235">
        <ele>1887.21</ele>
        <time>2026-08-29T09:30:30Z</time>
      </trkpt>
      <trkpt lat="42.54671" lon="2.07246">
        <ele>1887.21</ele>
        <time>2026-08-29T09:30:44Z</time>
      </trkpt>
      <trkpt lat="42.54669" lon="2.07259">
        <ele>1887.69</ele>
        <time>2026-08-29T09:30:56Z</time>
      </trkpt>
      <trkpt lat="42.54665" lon="2.07273">
        <ele>1883.84</ele>
        <time>2026-08-29T09:31:10Z</time>
      </trkpt>
      <trkpt lat="42.54659" lon="2.07283">
        <ele>1882.4</ele>
        <time>2026-08-29T09:31:27Z</time>
      </trkpt>
      <trkpt lat="42.54656" lon="2.07294">
        <ele>1881.92</ele>
        <time>2026-08-29T09:31:41Z</time>
      </trkpt>
      <trkpt lat="42.54654" lon="2.07303">
        <ele>1883.36</ele>
        <time>2026-08-29T09:31:53Z</time>
      </trkpt>
      <trkpt lat="42.54649" lon="2.07309">
        <ele>1884.32</ele>
        <time>2026-08-29T09:32:08Z</time>
      </trkpt>
      <trkpt lat="42.54646" lon="2.07318">
        <ele>1884.8</ele>
        <time>2026-08-29T09:32:21Z</time>
      </trkpt>
      <trkpt lat="42.54642" lon="2.07327">
        <ele>1888.17</ele>
        <time>2026-08-29T09:32:35Z</time>
      </trkpt>
      <trkpt lat="42.5464" lon="2.07347">
        <ele>1885.28</ele>
        <time>2026-08-29T09:32:51Z</time>
      </trkpt>
      <trkpt lat="42.54635" lon="2.07365">
        <ele>1883.84</ele>
        <time>2026-08-29T09:33:06Z</time>
      </trkpt>
      <trkpt lat="42.54631" lon="2.07381">
        <ele>1879.03</ele>
        <time>2026-08-29T09:33:21Z</time>
      </trkpt>
      <trkpt lat="42.54631" lon="2.07394">
        <ele>1875.19</ele>
        <time>2026-08-29T09:33:42Z</time>
      </trkpt>
      <trkpt lat="42.54628" lon="2.07408">
        <ele>1875.19</ele>
        <time>2026-08-29T09:33:57Z</time>
      </trkpt>
      <trkpt lat="42.54625" lon="2.07426">
        <ele>1873.27</ele>
        <time>2026-08-29T09:34:12Z</time>
      </trkpt>
      <trkpt lat="42.54624" lon="2.07435">
        <ele>1874.71</ele>
        <time>2026-08-29T09:34:29Z</time>
      </trkpt>
      <trkpt lat="42.54621" lon="2.07449">
        <ele>1871.82</ele>
        <time>2026-08-29T09:34:43Z</time>
      </trkpt>
      <trkpt lat="42.54618" lon="2.07459">
        <ele>1870.86</ele>
        <time>2026-08-29T09:34:57Z</time>
      </trkpt>
      <trkpt lat="42.54614" lon="2.07471">
        <ele>1870.38</ele>
        <time>2026-08-29T09:35:11Z</time>
      </trkpt>
      <trkpt lat="42.5461" lon="2.07479">
        <ele>1871.82</ele>
        <time>2026-08-29T09:35:24Z</time>
      </trkpt>
      <trkpt lat="42.54606" lon="2.07492">
        <ele>1872.79</ele>
        <time>2026-08-29T09:35:39Z</time>
      </trkpt>
      <trkpt lat="42.546" lon="2.07509">
        <ele>1870.38</ele>
        <time>2026-08-29T09:35:53Z</time>
      </trkpt>
      <trkpt lat="42.54599" lon="2.07521">
        <ele>1868.94</ele>
        <time>2026-08-29T09:36:07Z</time>
      </trkpt>
      <trkpt lat="42.546" lon="2.07532">
        <ele>1864.61</ele>
        <time>2026-08-29T09:36:20Z</time>
      </trkpt>
      <trkpt lat="42.54599" lon="2.07546">
        <ele>1862.69</ele>
        <time>2026-08-29T09:36:34Z</time>
      </trkpt>
      <trkpt lat="42.54596" lon="2.0756">
        <ele>1862.21</ele>
        <time>2026-08-29T09:36:47Z</time>
      </trkpt>
      <trkpt lat="42.54595" lon="2.07571">
        <ele>1862.69</ele>
        <time>2026-08-29T09:37:01Z</time>
      </trkpt>
      <trkpt lat="42.54591" lon="2.07587">
        <ele>1861.73</ele>
        <time>2026-08-29T09:37:15Z</time>
      </trkpt>
      <trkpt lat="42.54582" lon="2.07587">
        <ele>1859.81</ele>
        <time>2026-08-29T09:37:26Z</time>
      </trkpt>
      <trkpt lat="42.54577" lon="2.07582">
        <ele>1855.96</ele>
        <time>2026-08-29T09:37:41Z</time>
      </trkpt>
      <trkpt lat="42.54579" lon="2.07579">
        <ele>1852.6</ele>
        <time>2026-08-29T09:37:53Z</time>
      </trkpt>
      <trkpt lat="42.54579" lon="2.07576">
        <ele>1850.19</ele>
        <time>2026-08-29T09:38:08Z</time>
      </trkpt>
      <trkpt lat="42.54577" lon="2.07578">
        <ele>1848.27</ele>
        <time>2026-08-29T09:38:22Z</time>
      </trkpt>
      <trkpt lat="42.54577" lon="2.0759">
        <ele>1850.19</ele>
        <time>2026-08-29T09:38:39Z</time>
      </trkpt>
      <trkpt lat="42.54576" lon="2.07599">
        <ele>1851.16</ele>
        <time>2026-08-29T09:38:53Z</time>
      </trkpt>
      <trkpt lat="42.54574" lon="2.07611">
        <ele>1850.19</ele>
        <time>2026-08-29T09:39:07Z</time>
      </trkpt>
      <trkpt lat="42.54573" lon="2.07619">
        <ele>1850.19</ele>
        <time>2026-08-29T09:39:22Z</time>
      </trkpt>
      <trkpt lat="42.54572" lon="2.0763">
        <ele>1854.04</ele>
        <time>2026-08-29T09:39:35Z</time>
      </trkpt>
      <trkpt lat="42.54568" lon="2.07644">
        <ele>1852.12</ele>
        <time>2026-08-29T09:39:51Z</time>
      </trkpt>
      <trkpt lat="42.54568" lon="2.07652">
        <ele>1850.68</ele>
        <time>2026-08-29T09:40:06Z</time>
      </trkpt>
      <trkpt lat="42.54568" lon="2.07663">
        <ele>1848.75</ele>
        <time>2026-08-29T09:40:20Z</time>
      </trkpt>
      <trkpt lat="42.5457" lon="2.07669">
        <ele>1849.23</ele>
        <time>2026-08-29T09:40:34Z</time>
      </trkpt>
      <trkpt lat="42.5457" lon="2.07681">
        <ele>1849.23</ele>
        <time>2026-08-29T09:40:49Z</time>
      </trkpt>
      <trkpt lat="42.54569" lon="2.0769">
        <ele>1845.39</ele>
        <time>2026-08-29T09:41:00Z</time>
      </trkpt>
      <trkpt lat="42.54569" lon="2.07699">
        <ele>1842.5</ele>
        <time>2026-08-29T09:41:15Z</time>
      </trkpt>
      <trkpt lat="42.54567" lon="2.07708">
        <ele>1840.58</ele>
        <time>2026-08-29T09:41:30Z</time>
      </trkpt>
      <trkpt lat="42.54563" lon="2.07717">
        <ele>1841.06</ele>
        <time>2026-08-29T09:41:43Z</time>
      </trkpt>
      <trkpt lat="42.54559" lon="2.07727">
        <ele>1841.06</ele>
        <time>2026-08-29T09:41:58Z</time>
      </trkpt>
      <trkpt lat="42.54555" lon="2.07736">
        <ele>1840.1</ele>
        <time>2026-08-29T09:42:10Z</time>
      </trkpt>
      <trkpt lat="42.54552" lon="2.07742">
        <ele>1838.66</ele>
        <time>2026-08-29T09:42:22Z</time>
      </trkpt>
      <trkpt lat="42.54546" lon="2.07754">
        <ele>1838.18</ele>
        <time>2026-08-29T09:42:37Z</time>
      </trkpt>
      <trkpt lat="42.54543" lon="2.0776">
        <ele>1837.7</ele>
        <time>2026-08-29T09:42:53Z</time>
      </trkpt>
      <trkpt lat="42.54545" lon="2.07765">
        <ele>1836.74</ele>
        <time>2026-08-29T09:43:06Z</time>
      </trkpt>
      <trkpt lat="42.54545" lon="2.07771">
        <ele>1832.41</ele>
        <time>2026-08-29T09:43:20Z</time>
      </trkpt>
      <trkpt lat="42.54542" lon="2.07774">
        <ele>1830.01</ele>
        <time>2026-08-29T09:43:31Z</time>
      </trkpt>
      <trkpt lat="42.54534" lon="2.07774">
        <ele>1828.08</ele>
        <time>2026-08-29T09:43:44Z</time>
      </trkpt>
      <trkpt lat="42.54532" lon="2.07777">
        <ele>1827.6</ele>
        <time>2026-08-29T09:43:48Z</time>
      </trkpt>
      <trkpt lat="42.54529" lon="2.0779">
        <ele>1828.56</ele>
        <time>2026-08-29T09:44:03Z</time>
      </trkpt>
      <trkpt lat="42.54523" lon="2.07804">
        <ele>1828.08</ele>
        <time>2026-08-29T09:44:20Z</time>
      </trkpt>
      <trkpt lat="42.5452" lon="2.07812">
        <ele>1828.08</ele>
        <time>2026-08-29T09:44:33Z</time>
      </trkpt>
      <trkpt lat="42.54519" lon="2.0781">
        <ele>1829.53</ele>
        <time>2026-08-29T09:44:57Z</time>
      </trkpt>
      <trkpt lat="42.54514" lon="2.07812">
        <ele>1827.12</ele>
        <time>2026-08-29T09:45:11Z</time>
      </trkpt>
      <trkpt lat="42.54518" lon="2.07814">
        <ele>1825.68</ele>
        <time>2026-08-29T09:45:29Z</time>
      </trkpt>
      <trkpt lat="42.54519" lon="2.07812">
        <ele>1827.6</ele>
        <time>2026-08-29T09:45:50Z</time>
      </trkpt>
      <trkpt lat="42.54517" lon="2.07808">
        <ele>1826.16</ele>
        <time>2026-08-29T09:46:21Z</time>
      </trkpt>
      <trkpt lat="42.54517" lon="2.07808">
        <ele>1826.16</ele>
        <time>2026-08-29T09:46:23Z</time>
      </trkpt>
      <trkpt lat="42.54519" lon="2.07816">
        <ele>1824.72</ele>
        <time>2026-08-29T09:46:35Z</time>
      </trkpt>
      <trkpt lat="42.54518" lon="2.07821">
        <ele>1821.35</ele>
        <time>2026-08-29T09:47:18Z</time>
      </trkpt>
      <trkpt lat="42.54513" lon="2.07813">
        <ele>1821.84</ele>
        <time>2026-08-29T09:47:45Z</time>
      </trkpt>
      <trkpt lat="42.54512" lon="2.07816">
        <ele>1808.38</ele>
        <time>2026-08-29T09:49:10Z</time>
      </trkpt>
      <trkpt lat="42.54513" lon="2.07809">
        <ele>1825.2</ele>
        <time>2026-08-29T09:49:24Z</time>
      </trkpt>
      <trkpt lat="42.54517" lon="2.07808">
        <ele>1826.16</ele>
        <time>2026-08-29T09:49:56Z</time>
      </trkpt>
      <trkpt lat="42.54518" lon="2.07813">
        <ele>1831.45</ele>
        <time>2026-08-29T09:50:30Z</time>
      </trkpt>
      <trkpt lat="42.54519" lon="2.07817">
        <ele>1827.6</ele>
        <time>2026-08-29T09:50:43Z</time>
      </trkpt>
      <trkpt lat="42.5452" lon="2.07818">
        <ele>1827.12</ele>
        <time>2026-08-29T09:50:55Z</time>
      </trkpt>
      <trkpt lat="42.54517" lon="2.07815">
        <ele>1826.16</ele>
        <time>2026-08-29T09:51:12Z</time>
      </trkpt>
      <trkpt lat="42.54522" lon="2.07825">
        <ele>1826.64</ele>
        <time>2026-08-29T09:51:26Z</time>
      </trkpt>
      <trkpt lat="42.54521" lon="2.07836">
        <ele>1826.64</ele>
        <time>2026-08-29T09:51:39Z</time>
      </trkpt>
      <trkpt lat="42.54524" lon="2.07846">
        <ele>1830.01</ele>
        <time>2026-08-29T09:51:52Z</time>
      </trkpt>
      <trkpt lat="42.54526" lon="2.07853">
        <ele>1830.97</ele>
        <time>2026-08-29T09:52:05Z</time>
      </trkpt>
      <trkpt lat="42.54523" lon="2.07864">
        <ele>1835.77</ele>
        <time>2026-08-29T09:52:24Z</time>
      </trkpt>
      <trkpt lat="42.54516" lon="2.07879">
        <ele>1834.33</ele>
        <time>2026-08-29T09:52:35Z</time>
      </trkpt>
      <trkpt lat="42.54513" lon="2.07888">
        <ele>1837.7</ele>
        <time>2026-08-29T09:52:49Z</time>
      </trkpt>
      <trkpt lat="42.54506" lon="2.07895">
        <ele>1842.98</ele>
        <time>2026-08-29T09:53:02Z</time>
      </trkpt>
      <trkpt lat="42.545" lon="2.07901">
        <ele>1849.23</ele>
        <time>2026-08-29T09:53:14Z</time>
      </trkpt>
      <trkpt lat="42.54501" lon="2.07913">
        <ele>1851.64</ele>
        <time>2026-08-29T09:53:26Z</time>
      </trkpt>
      <trkpt lat="42.54503" lon="2.07918">
        <ele>1852.6</ele>
        <time>2026-08-29T09:53:41Z</time>
      </trkpt>
      <trkpt lat="42.54498" lon="2.07922">
        <ele>1848.27</ele>
        <time>2026-08-29T09:53:53Z</time>
      </trkpt>
      <trkpt lat="42.54495" lon="2.07931">
        <ele>1843.47</ele>
        <time>2026-08-29T09:54:09Z</time>
      </trkpt>
      <trkpt lat="42.54497" lon="2.0794">
        <ele>1839.62</ele>
        <time>2026-08-29T09:54:24Z</time>
      </trkpt>
      <trkpt lat="42.545" lon="2.07952">
        <ele>1837.7</ele>
        <time>2026-08-29T09:54:37Z</time>
      </trkpt>
      <trkpt lat="42.54504" lon="2.07968">
        <ele>1835.29</ele>
        <time>2026-08-29T09:54:50Z</time>
      </trkpt>
      <trkpt lat="42.54507" lon="2.07981">
        <ele>1833.85</ele>
        <time>2026-08-29T09:55:03Z</time>
      </trkpt>
      <trkpt lat="42.54511" lon="2.0799">
        <ele>1833.85</ele>
        <time>2026-08-29T09:55:16Z</time>
      </trkpt>
      <trkpt lat="42.54512" lon="2.07999">
        <ele>1833.85</ele>
        <time>2026-08-29T09:55:29Z</time>
      </trkpt>
      <trkpt lat="42.5451" lon="2.08017">
        <ele>1830.49</ele>
        <time>2026-08-29T09:55:45Z</time>
      </trkpt>
      <trkpt lat="42.54512" lon="2.08025">
        <ele>1828.56</ele>
        <time>2026-08-29T09:55:59Z</time>
      </trkpt>
      <trkpt lat="42.54511" lon="2.0803">
        <ele>1831.45</ele>
        <time>2026-08-29T09:56:12Z</time>
      </trkpt>
      <trkpt lat="42.54514" lon="2.08041">
        <ele>1833.85</ele>
        <time>2026-08-29T09:56:26Z</time>
      </trkpt>
      <trkpt lat="42.54509" lon="2.08054">
        <ele>1833.85</ele>
        <time>2026-08-29T09:56:37Z</time>
      </trkpt>
      <trkpt lat="42.54509" lon="2.08068">
        <ele>1834.33</ele>
        <time>2026-08-29T09:56:50Z</time>
      </trkpt>
      <trkpt lat="42.54509" lon="2.08079">
        <ele>1836.74</ele>
        <time>2026-08-29T09:57:03Z</time>
      </trkpt>
      <trkpt lat="42.5451" lon="2.08092">
        <ele>1834.33</ele>
        <time>2026-08-29T09:57:16Z</time>
      </trkpt>
      <trkpt lat="42.54513" lon="2.08112">
        <ele>1830.49</ele>
        <time>2026-08-29T09:57:29Z</time>
      </trkpt>
      <trkpt lat="42.54516" lon="2.08126">
        <ele>1830.49</ele>
        <time>2026-08-29T09:57:41Z</time>
      </trkpt>
      <trkpt lat="42.54517" lon="2.08133">
        <ele>1832.41</ele>
        <time>2026-08-29T09:57:50Z</time>
      </trkpt>
      <trkpt lat="42.54516" lon="2.08143">
        <ele>1834.81</ele>
        <time>2026-08-29T09:58:04Z</time>
      </trkpt>
      <trkpt lat="42.54518" lon="2.0816">
        <ele>1832.41</ele>
        <time>2026-08-29T09:58:20Z</time>
      </trkpt>
      <trkpt lat="42.54516" lon="2.08179">
        <ele>1833.85</ele>
        <time>2026-08-29T09:58:35Z</time>
      </trkpt>
      <trkpt lat="42.54509" lon="2.08188">
        <ele>1838.66</ele>
        <time>2026-08-29T09:58:50Z</time>
      </trkpt>
      <trkpt lat="42.54507" lon="2.08193">
        <ele>1834.81</ele>
        <time>2026-08-29T09:59:03Z</time>
      </trkpt>
      <trkpt lat="42.54502" lon="2.08207">
        <ele>1834.33</ele>
        <time>2026-08-29T09:59:18Z</time>
      </trkpt>
      <trkpt lat="42.54492" lon="2.08214">
        <ele>1837.22</ele>
        <time>2026-08-29T09:59:30Z</time>
      </trkpt>
      <trkpt lat="42.54482" lon="2.08225">
        <ele>1837.22</ele>
        <time>2026-08-29T09:59:44Z</time>
      </trkpt>
      <trkpt lat="42.54481" lon="2.08235">
        <ele>1835.29</ele>
        <time>2026-08-29T09:59:52Z</time>
      </trkpt>
      <trkpt lat="42.54474" lon="2.08255">
        <ele>1828.08</ele>
        <time>2026-08-29T10:00:07Z</time>
      </trkpt>
      <trkpt lat="42.54472" lon="2.08263">
        <ele>1827.6</ele>
        <time>2026-08-29T10:00:17Z</time>
      </trkpt>
      <trkpt lat="42.5447" lon="2.08265">
        <ele>1827.12</ele>
        <time>2026-08-29T10:00:19Z</time>
      </trkpt>
      <trkpt lat="42.54462" lon="2.08282">
        <ele>1828.08</ele>
        <time>2026-08-29T10:00:33Z</time>
      </trkpt>
      <trkpt lat="42.54459" lon="2.08293">
        <ele>1830.97</ele>
        <time>2026-08-29T10:00:47Z</time>
      </trkpt>
      <trkpt lat="42.5446" lon="2.08308">
        <ele>1834.33</ele>
        <time>2026-08-29T10:01:02Z</time>
      </trkpt>
      <trkpt lat="42.5446" lon="2.08325">
        <ele>1833.85</ele>
        <time>2026-08-29T10:01:15Z</time>
      </trkpt>
      <trkpt lat="42.54464" lon="2.08352">
        <ele>1824.24</ele>
        <time>2026-08-29T10:01:29Z</time>
      </trkpt>
      <trkpt lat="42.54465" lon="2.0837">
        <ele>1818.95</ele>
        <time>2026-08-29T10:01:42Z</time>
      </trkpt>
      <trkpt lat="42.54464" lon="2.0838">
        <ele>1821.84</ele>
        <time>2026-08-29T10:01:57Z</time>
      </trkpt>
      <trkpt lat="42.54462" lon="2.08388">
        <ele>1824.24</ele>
        <time>2026-08-29T10:02:11Z</time>
      </trkpt>
      <trkpt lat="42.54458" lon="2.08398">
        <ele>1827.12</ele>
        <time>2026-08-29T10:02:24Z</time>
      </trkpt>
      <trkpt lat="42.54456" lon="2.08413">
        <ele>1823.28</ele>
        <time>2026-08-29T10:02:39Z</time>
      </trkpt>
      <trkpt lat="42.54456" lon="2.08429">
        <ele>1818.47</ele>
        <time>2026-08-29T10:02:54Z</time>
      </trkpt>
      <trkpt lat="42.54454" lon="2.08445">
        <ele>1816.55</ele>
        <time>2026-08-29T10:03:07Z</time>
      </trkpt>
      <trkpt lat="42.54453" lon="2.08457">
        <ele>1816.07</ele>
        <time>2026-08-29T10:03:20Z</time>
      </trkpt>
      <trkpt lat="42.54449" lon="2.08467">
        <ele>1810.78</ele>
        <time>2026-08-29T10:03:35Z</time>
      </trkpt>
      <trkpt lat="42.54443" lon="2.08478">
        <ele>1805.97</ele>
        <time>2026-08-29T10:03:52Z</time>
      </trkpt>
      <trkpt lat="42.54436" lon="2.08483">
        <ele>1803.57</ele>
        <time>2026-08-29T10:04:05Z</time>
      </trkpt>
      <trkpt lat="42.54428" lon="2.08491">
        <ele>1801.65</ele>
        <time>2026-08-29T10:04:20Z</time>
      </trkpt>
      <trkpt lat="42.5442" lon="2.08503">
        <ele>1797.8</ele>
        <time>2026-08-29T10:04:33Z</time>
      </trkpt>
      <trkpt lat="42.54424" lon="2.08512">
        <ele>1798.76</ele>
        <time>2026-08-29T10:04:48Z</time>
      </trkpt>
      <trkpt lat="42.54425" lon="2.08519">
        <ele>1798.28</ele>
        <time>2026-08-29T10:05:04Z</time>
      </trkpt>
      <trkpt lat="42.54427" lon="2.08527">
        <ele>1800.69</ele>
        <time>2026-08-29T10:05:19Z</time>
      </trkpt>
      <trkpt lat="42.54431" lon="2.0854">
        <ele>1801.65</ele>
        <time>2026-08-29T10:05:32Z</time>
      </trkpt>
      <trkpt lat="42.54433" lon="2.08541">
        <ele>1798.76</ele>
        <time>2026-08-29T10:05:46Z</time>
      </trkpt>
      <trkpt lat="42.54435" lon="2.08542">
        <ele>1795.88</ele>
        <time>2026-08-29T10:06:12Z</time>
      </trkpt>
      <trkpt lat="42.5444" lon="2.08553">
        <ele>1791.55</ele>
        <time>2026-08-29T10:06:34Z</time>
      </trkpt>
      <trkpt lat="42.54438" lon="2.08562">
        <ele>1792.03</ele>
        <time>2026-08-29T10:06:47Z</time>
      </trkpt>
      <trkpt lat="42.54442" lon="2.08565">
        <ele>1786.27</ele>
        <time>2026-08-29T10:07:00Z</time>
      </trkpt>
      <trkpt lat="42.54441" lon="2.08576">
        <ele>1789.63</ele>
        <time>2026-08-29T10:07:16Z</time>
      </trkpt>
      <trkpt lat="42.54439" lon="2.08587">
        <ele>1789.63</ele>
        <time>2026-08-29T10:07:31Z</time>
      </trkpt>
      <trkpt lat="42.54438" lon="2.08598">
        <ele>1788.19</ele>
        <time>2026-08-29T10:07:43Z</time>
      </trkpt>
      <trkpt lat="42.5444" lon="2.08612">
        <ele>1785.31</ele>
        <time>2026-08-29T10:07:59Z</time>
      </trkpt>
      <trkpt lat="42.54439" lon="2.08624">
        <ele>1784.82</ele>
        <time>2026-08-29T10:08:15Z</time>
      </trkpt>
      <trkpt lat="42.54435" lon="2.08634">
        <ele>1779.54</ele>
        <time>2026-08-29T10:08:44Z</time>
      </trkpt>
      <trkpt lat="42.54435" lon="2.08636">
        <ele>1779.06</ele>
        <time>2026-08-29T10:08:56Z</time>
      </trkpt>
      <trkpt lat="42.54433" lon="2.08637">
        <ele>1777.61</ele>
        <time>2026-08-29T10:09:18Z</time>
      </trkpt>
      <trkpt lat="42.54434" lon="2.08638">
        <ele>1778.1</ele>
        <time>2026-08-29T10:09:34Z</time>
      </trkpt>
      <trkpt lat="42.54427" lon="2.08645">
        <ele>1778.1</ele>
        <time>2026-08-29T10:09:46Z</time>
      </trkpt>
      <trkpt lat="42.54428" lon="2.08653">
        <ele>1778.58</ele>
        <time>2026-08-29T10:10:00Z</time>
      </trkpt>
      <trkpt lat="42.54428" lon="2.08655">
        <ele>1779.54</ele>
        <time>2026-08-29T10:10:18Z</time>
      </trkpt>
      <trkpt lat="42.54431" lon="2.08666">
        <ele>1774.25</ele>
        <time>2026-08-29T10:10:47Z</time>
      </trkpt>
      <trkpt lat="42.54435" lon="2.08666">
        <ele>1773.29</ele>
        <time>2026-08-29T10:11:17Z</time>
      </trkpt>
      <trkpt lat="42.54433" lon="2.08662">
        <ele>1771.37</ele>
        <time>2026-08-29T10:11:31Z</time>
      </trkpt>
      <trkpt lat="42.54433" lon="2.08663">
        <ele>1773.77</ele>
        <time>2026-08-29T10:11:47Z</time>
      </trkpt>
      <trkpt lat="42.54428" lon="2.08664">
        <ele>1773.77</ele>
        <time>2026-08-29T10:12:02Z</time>
      </trkpt>
      <trkpt lat="42.54423" lon="2.08664">
        <ele>1774.73</ele>
        <time>2026-08-29T10:12:15Z</time>
      </trkpt>
      <trkpt lat="42.5442" lon="2.08662">
        <ele>1780.02</ele>
        <time>2026-08-29T10:12:27Z</time>
      </trkpt>
      <trkpt lat="42.54417" lon="2.08661">
        <ele>1782.9</ele>
        <time>2026-08-29T10:12:41Z</time>
      </trkpt>
      <trkpt lat="42.54404" lon="2.08665">
        <ele>1779.54</ele>
        <time>2026-08-29T10:12:55Z</time>
      </trkpt>
      <trkpt lat="42.54399" lon="2.08665">
        <ele>1773.77</ele>
        <time>2026-08-29T10:13:10Z</time>
      </trkpt>
      <trkpt lat="42.54404" lon="2.08677">
        <ele>1772.81</ele>
        <time>2026-08-29T10:13:24Z</time>
      </trkpt>
      <trkpt lat="42.54416" lon="2.08686">
        <ele>1773.77</ele>
        <time>2026-08-29T10:13:39Z</time>
      </trkpt>
      <trkpt lat="42.54424" lon="2.0869">
        <ele>1773.77</ele>
        <time>2026-08-29T10:13:51Z</time>
      </trkpt>
      <trkpt lat="42.5443" lon="2.08693">
        <ele>1776.17</ele>
        <time>2026-08-29T10:14:05Z</time>
      </trkpt>
      <trkpt lat="42.54436" lon="2.0869">
        <ele>1776.65</ele>
        <time>2026-08-29T10:14:17Z</time>
      </trkpt>
      <trkpt lat="42.54444" lon="2.08683">
        <ele>1772.81</ele>
        <time>2026-08-29T10:14:32Z</time>
      </trkpt>
      <trkpt lat="42.54445" lon="2.08682">
        <ele>1771.37</ele>
        <time>2026-08-29T10:14:33Z</time>
      </trkpt>
      <trkpt lat="42.54449" lon="2.08681">
        <ele>1765.6</ele>
        <time>2026-08-29T10:14:46Z</time>
      </trkpt>
      <trkpt lat="42.54443" lon="2.08686">
        <ele>1765.6</ele>
        <time>2026-08-29T10:15:01Z</time>
      </trkpt>
      <trkpt lat="42.5444" lon="2.08695">
        <ele>1767.04</ele>
        <time>2026-08-29T10:15:14Z</time>
      </trkpt>
      <trkpt lat="42.54439" lon="2.08705">
        <ele>1764.64</ele>
        <time>2026-08-29T10:15:27Z</time>
      </trkpt>
      <trkpt lat="42.54438" lon="2.08713">
        <ele>1765.6</ele>
        <time>2026-08-29T10:15:40Z</time>
      </trkpt>
      <trkpt lat="42.54438" lon="2.08718">
        <ele>1763.68</ele>
        <time>2026-08-29T10:15:56Z</time>
      </trkpt>
      <trkpt lat="42.54444" lon="2.08722">
        <ele>1757.91</ele>
        <time>2026-08-29T10:16:09Z</time>
      </trkpt>
      <trkpt lat="42.54447" lon="2.08734">
        <ele>1755.02</ele>
        <time>2026-08-29T10:16:20Z</time>
      </trkpt>
      <trkpt lat="42.54445" lon="2.08738">
        <ele>1755.02</ele>
        <time>2026-08-29T10:16:34Z</time>
      </trkpt>
      <trkpt lat="42.54443" lon="2.08749">
        <ele>1752.62</ele>
        <time>2026-08-29T10:16:48Z</time>
      </trkpt>
      <trkpt lat="42.54445" lon="2.08757">
        <ele>1752.62</ele>
        <time>2026-08-29T10:17:01Z</time>
      </trkpt>
      <trkpt lat="42.54446" lon="2.08759">
        <ele>1749.74</ele>
        <time>2026-08-29T10:17:17Z</time>
      </trkpt>
      <trkpt lat="42.54444" lon="2.08765">
        <ele>1748.29</ele>
        <time>2026-08-29T10:17:28Z</time>
      </trkpt>
      <trkpt lat="42.54442" lon="2.08775">
        <ele>1744.93</ele>
        <time>2026-08-29T10:17:44Z</time>
      </trkpt>
      <trkpt lat="42.54444" lon="2.08786">
        <ele>1741.08</ele>
        <time>2026-08-29T10:17:57Z</time>
      </trkpt>
      <trkpt lat="42.54446" lon="2.0879">
        <ele>1736.76</ele>
        <time>2026-08-29T10:18:15Z</time>
      </trkpt>
      <trkpt lat="42.54448" lon="2.08797">
        <ele>1734.84</ele>
        <time>2026-08-29T10:18:28Z</time>
      </trkpt>
      <trkpt lat="42.54448" lon="2.08806">
        <ele>1736.76</ele>
        <time>2026-08-29T10:18:42Z</time>
      </trkpt>
      <trkpt lat="42.54448" lon="2.08811">
        <ele>1736.76</ele>
        <time>2026-08-29T10:18:54Z</time>
      </trkpt>
      <trkpt lat="42.54447" lon="2.08818">
        <ele>1736.28</ele>
        <time>2026-08-29T10:19:07Z</time>
      </trkpt>
      <trkpt lat="42.54442" lon="2.08827">
        <ele>1738.2</ele>
        <time>2026-08-29T10:19:22Z</time>
      </trkpt>
      <trkpt lat="42.54438" lon="2.08832">
        <ele>1739.16</ele>
        <time>2026-08-29T10:19:27Z</time>
      </trkpt>
      <trkpt lat="42.54434" lon="2.08844">
        <ele>1737.24</ele>
        <time>2026-08-29T10:19:41Z</time>
      </trkpt>
      <trkpt lat="42.54435" lon="2.08857">
        <ele>1735.32</ele>
        <time>2026-08-29T10:19:54Z</time>
      </trkpt>
      <trkpt lat="42.5444" lon="2.0887">
        <ele>1729.55</ele>
        <time>2026-08-29T10:20:07Z</time>
      </trkpt>
      <trkpt lat="42.54441" lon="2.08871">
        <ele>1729.55</ele>
        <time>2026-08-29T10:20:10Z</time>
      </trkpt>
      <trkpt lat="42.54452" lon="2.0888">
        <ele>1728.11</ele>
        <time>2026-08-29T10:20:25Z</time>
      </trkpt>
      <trkpt lat="42.54453" lon="2.08883">
        <ele>1728.59</ele>
        <time>2026-08-29T10:20:30Z</time>
      </trkpt>
      <trkpt lat="42.54449" lon="2.089">
        <ele>1728.11</ele>
        <time>2026-08-29T10:20:46Z</time>
      </trkpt>
      <trkpt lat="42.54447" lon="2.08909">
        <ele>1728.59</ele>
        <time>2026-08-29T10:21:01Z</time>
      </trkpt>
      <trkpt lat="42.54443" lon="2.08916">
        <ele>1728.59</ele>
        <time>2026-08-29T10:21:15Z</time>
      </trkpt>
      <trkpt lat="42.54441" lon="2.08922">
        <ele>1727.63</ele>
        <time>2026-08-29T10:21:28Z</time>
      </trkpt>
      <trkpt lat="42.54441" lon="2.08936">
        <ele>1729.07</ele>
        <time>2026-08-29T10:21:41Z</time>
      </trkpt>
      <trkpt lat="42.5444" lon="2.08946">
        <ele>1731.47</ele>
        <time>2026-08-29T10:21:53Z</time>
      </trkpt>
      <trkpt lat="42.54442" lon="2.08954">
        <ele>1731.47</ele>
        <time>2026-08-29T10:22:05Z</time>
      </trkpt>
      <trkpt lat="42.54444" lon="2.0896">
        <ele>1731.47</ele>
        <time>2026-08-29T10:22:20Z</time>
      </trkpt>
      <trkpt lat="42.54449" lon="2.08969">
        <ele>1730.99</ele>
        <time>2026-08-29T10:22:37Z</time>
      </trkpt>
      <trkpt lat="42.54455" lon="2.08984">
        <ele>1729.55</ele>
        <time>2026-08-29T10:22:51Z</time>
      </trkpt>
      <trkpt lat="42.54455" lon="2.08985">
        <ele>1729.55</ele>
        <time>2026-08-29T10:22:52Z</time>
      </trkpt>
      <trkpt lat="42.54462" lon="2.09003">
        <ele>1726.18</ele>
        <time>2026-08-29T10:23:07Z</time>
      </trkpt>
      <trkpt lat="42.54468" lon="2.09019">
        <ele>1723.78</ele>
        <time>2026-08-29T10:23:22Z</time>
      </trkpt>
      <trkpt lat="42.54467" lon="2.09027">
        <ele>1722.82</ele>
        <time>2026-08-29T10:23:35Z</time>
      </trkpt>
      <trkpt lat="42.54466" lon="2.09029">
        <ele>1722.34</ele>
        <time>2026-08-29T10:23:38Z</time>
      </trkpt>
      <trkpt lat="42.54458" lon="2.0904">
        <ele>1722.34</ele>
        <time>2026-08-29T10:23:54Z</time>
      </trkpt>
      <trkpt lat="42.54458" lon="2.09045">
        <ele>1721.38</ele>
        <time>2026-08-29T10:24:12Z</time>
      </trkpt>
      <trkpt lat="42.5446" lon="2.09046">
        <ele>1720.9</ele>
        <time>2026-08-29T10:24:28Z</time>
      </trkpt>
      <trkpt lat="42.54468" lon="2.09049">
        <ele>1719.46</ele>
        <time>2026-08-29T10:24:40Z</time>
      </trkpt>
      <trkpt lat="42.54476" lon="2.09052">
        <ele>1718.49</ele>
        <time>2026-08-29T10:24:53Z</time>
      </trkpt>
      <trkpt lat="42.54478" lon="2.09052">
        <ele>1717.05</ele>
        <time>2026-08-29T10:25:03Z</time>
      </trkpt>
      <trkpt lat="42.54481" lon="2.09051">
        <ele>1716.57</ele>
        <time>2026-08-29T10:25:17Z</time>
      </trkpt>
      <trkpt lat="42.54489" lon="2.09055">
        <ele>1716.57</ele>
        <time>2026-08-29T10:25:31Z</time>
      </trkpt>
      <trkpt lat="42.54496" lon="2.09056">
        <ele>1717.05</ele>
        <time>2026-08-29T10:25:45Z</time>
      </trkpt>
      <trkpt lat="42.54495" lon="2.09056">
        <ele>1718.97</ele>
        <time>2026-08-29T10:26:07Z</time>
      </trkpt>
      <trkpt lat="42.54496" lon="2.09058">
        <ele>1718.97</ele>
        <time>2026-08-29T10:26:24Z</time>
      </trkpt>
      <trkpt lat="42.54497" lon="2.09056">
        <ele>1718.49</ele>
        <time>2026-08-29T10:26:45Z</time>
      </trkpt>
      <trkpt lat="42.54496" lon="2.09057">
        <ele>1718.01</ele>
        <time>2026-08-29T10:27:08Z</time>
      </trkpt>
      <trkpt lat="42.54496" lon="2.09056">
        <ele>1717.05</ele>
        <time>2026-08-29T10:27:23Z</time>
      </trkpt>
      <trkpt lat="42.54496" lon="2.09057">
        <ele>1718.97</ele>
        <time>2026-08-29T10:27:56Z</time>
      </trkpt>
    </trkseg>
  </trk>
</gpx>